Another Hard Day at the Office Weather Stats

 
 
 

High monthly outside Temperature, 21.9 , C
Low monthly outside Temperature, 7.9 , C
High yearly outside Temperature, 31.9 , C
Low yearly outside Temperature, 0.7 , C

Low monthly barometer, 993.4 , mb
High monthly barometer, 1021.4 , mb
Low yearly barometer, 976.8 , mb
High yearly barometer 1035.7 , mb

High wind speed, 23.0 , mph
Time of High wind speed, 7:20 , mph
High monthly wind speed, 45.0 , mph
High yearly wind speed, 64.0 , mph

 

 




3123
                    Temp     Hi    Low   Out    Dew  Wind  Wind   Wind    Hi    Hi   Wind   Heat    THW                Rain    Heat    Cool    In     In    In     In     In   In Air  Wind  Wind    ISS   Arc.
  Date    Time     Out   Temp   Temp   Hum    Pt. Speed   Dir    Run Speed   Dir  Chill  Index  Index   Bar    Rain  Rate    D-D     D-D    Temp   Hum    Dew   Heat    EMC Density  Samp   Tx   Recept  Int.
---------------------------------------------------------------------------------------------------------------------------------------------------------------------------------------------------------------
27/08/14   0:05   14.7   14.7   14.7    92   13.4   6.0   NNE   0.50  10.0    NE   14.3   14.8   14.4  1010.9  0.00   0.0   0.013   0.000   27.1    49   15.4   27.1   8.94 1.1533    115    1    100.0    5 
27/08/14   0:10   14.7   14.7   14.7    92   13.4   7.0   NNE   0.58  10.0   NNE   14.1   14.8   14.2  1010.9  0.00   0.0   0.013   0.000   27.1    49   15.4   27.1   8.94 1.1534    117    1    100.0    5 
27/08/14   0:15   14.7   14.7   14.7    92   13.4   6.0     N   0.50  10.0   NNE   14.3   14.8   14.4  1010.9  0.00   0.0   0.013   0.000   27.1    49   15.4   27.1   8.94 1.1534    116    1    100.0    5 
27/08/14   0:20   14.7   14.7   14.7    92   13.4   7.0   NNE   0.58  12.0   NNE   14.1   14.8   14.2  1011.0  0.00   0.0   0.013   0.000   27.0    49   15.4   27.0   8.94 1.1538    116    1    100.0    5 
27/08/14   0:25   14.6   14.7   14.6    91   13.2   6.0     N   0.50  12.0   NNE   14.2   14.7   14.3  1011.1  0.00   0.0   0.013   0.000   27.0    49   15.4   27.0   8.94 1.1539    117    1    100.0    5 
27/08/14   0:30   14.6   14.6   14.6    91   13.1   7.0   NNE   0.58  11.0     N   13.9   14.7   14.0  1011.1  0.00   0.0   0.013   0.000   27.0    49   15.4   27.0   8.94 1.1539    118    1    100.0    5 
27/08/14   0:35   14.6   14.6   14.6    91   13.1   6.0   NNE   0.50   9.0   NNE   14.1   14.7   14.2  1011.2  0.00   0.0   0.013   0.000   26.9    49   15.3   26.9   8.94 1.1543    117    1    100.0    5 
27/08/14   0:40   14.6   14.6   14.6    91   13.1   5.0   NNE   0.42   9.0   NNE   14.3   14.7   14.4  1011.3  0.00   0.0   0.013   0.000   26.9    49   15.3   26.9   8.94 1.1544    116    1    100.0    5 
27/08/14   0:45   14.5   14.6   14.5    91   13.0   6.0   NNE   0.50  10.0     N   14.1   14.6   14.1  1011.3  0.00   0.0   0.013   0.000   26.9    49   15.3   26.9   8.94 1.1545    117    1    100.0    5 
27/08/14   0:50   14.6   14.6   14.5    91   13.1   6.0   NNE   0.50  11.0   NNE   14.1   14.7   14.2  1011.2  0.00   0.0   0.013   0.000   26.9    48   15.0   26.8   8.84 1.1550    116    1    100.0    5 
27/08/14   0:55   14.5   14.5   14.5    91   13.0   7.0   NNE   0.58  10.0     N   13.8   14.6   13.9  1011.3  0.00   0.0   0.013   0.000   26.9    48   15.0   26.8   8.84 1.1551    117    1    100.0    5 
27/08/14   1:00   14.4   14.5   14.4    91   13.0   7.0   NNE   0.58  12.0   NNE   13.8   14.5   13.8  1011.2  0.00   0.0   0.014   0.000   26.9    48   15.0   26.8   8.84 1.1550    116    1    100.0    5 
27/08/14   1:05   14.4   14.4   14.4    91   12.9   8.0   NNE   0.67  12.0   NNW   13.3   14.4   13.4  1011.2  0.00   0.0   0.014   0.000   26.8    48   14.9   26.8   8.84 1.1553    117    1    100.0    5 
27/08/14   1:10   14.3   14.4   14.3    91   12.9   8.0   NNE   0.67  12.0    NE   13.3   14.4   13.3  1011.3  0.00   0.0   0.014   0.000   26.8    48   14.9   26.8   8.84 1.1554    116    1    100.0    5 
27/08/14   1:15   14.3   14.3   14.3    91   12.8   7.0   NNE   0.58  11.0     N   13.6   14.3   13.6  1011.4  0.00   0.0   0.014   0.000   26.8    48   14.9   26.8   8.84 1.1555    117    1    100.0    5 
27/08/14   1:20   14.2   14.3   14.2    91   12.7   8.0   NNE   0.67  12.0   NNE   13.1   14.2   13.1  1011.4  0.00   0.0   0.014   0.000   26.8    48   14.8   26.7   8.85 1.1558    116    1    100.0    5 
27/08/14   1:25   14.1   14.2   14.1    91   12.6   9.0   NNE   0.75  14.0     N   12.5   14.1   12.6  1011.3  0.00   0.0   0.015   0.000   26.8    48   14.8   26.7   8.85 1.1557    117    1    100.0    5 
27/08/14   1:30   13.9   14.1   13.9    90   12.3   8.0   NNE   0.67  12.0   NNE   12.8   14.0   12.8  1011.4  0.00   0.0   0.015   0.000   26.8    48   14.8   26.7   8.85 1.1558    115    1    100.0    5 
27/08/14   1:35   13.8   13.9   13.8    91   12.4   7.0   NNE   0.58  10.0   NNE   13.1   13.9   13.1  1011.4  0.00   0.0   0.016   0.000   26.7    48   14.8   26.7   8.85 1.1560    116    1    100.0    5 
27/08/14   1:40   13.8   13.8   13.8    91   12.3   7.0   NNE   0.58  11.0   NNE   13.0   13.8   13.1  1011.5  0.00   0.0   0.016   0.000   26.7    48   14.8   26.7   8.85 1.1561    115    1    100.0    5 
27/08/14   1:45   13.7   13.8   13.7    91   12.2   7.0   NNE   0.58  10.0   NNE   12.8   13.7   12.9  1011.4  0.00   0.0   0.016   0.000   26.7    48   14.8   26.7   8.85 1.1561    117    1    100.0    5 
27/08/14   1:50   13.6   13.7   13.6    91   12.2   7.0   NNE   0.58  10.0   NNE   12.8   13.7   12.8  1011.4  0.00   0.0   0.016   0.000   26.7    48   14.8   26.7   8.85 1.1561    116    1    100.0    5 
27/08/14   1:55   13.5   13.6   13.5    91   12.1   6.0   NNE   0.50   9.0   NNE   12.9   13.6   12.9  1011.5  0.00   0.0   0.017   0.000   26.7    48   14.7   26.6   8.85 1.1565    117    1    100.0    5 
27/08/14   2:00   13.4   13.5   13.4    91   12.0   6.0   NNE   0.50  10.0   NNE   12.8   13.5   12.8  1011.6  0.00   0.0   0.017   0.000   26.7    48   14.7   26.6   8.85 1.1566    117    1    100.0    5 
27/08/14   2:05   13.4   13.4   13.4    91   12.0   6.0   NNE   0.50  10.0   NNE   12.8   13.5   12.8  1011.7  0.00   0.0   0.017   0.000   26.6    48   14.7   26.6   8.85 1.1569    116    1    100.0    5 
27/08/14   2:10   13.4   13.4   13.4    91   12.0   7.0   NNE   0.58  10.0   NNE   12.6   13.5   12.6  1011.6  0.00   0.0   0.017   0.000   26.6    48   14.7   26.6   8.85 1.1569    115    1    100.0    5 
27/08/14   2:15   13.4   13.4   13.4    91   12.0   6.0   NNE   0.50   9.0   NNE   12.8   13.5   12.8  1011.7  0.00   0.0   0.017   0.000   26.6    48   14.7   26.6   8.85 1.1569    116    1    100.0    5 
27/08/14   2:20   13.4   13.4   13.4    91   11.9   5.0     N   0.42   8.0    NE   13.0   13.4   13.1  1011.8  0.00   0.0   0.017   0.000   26.6    48   14.6   26.5   8.85 1.1573    117    1    100.0    5 
27/08/14   2:25   13.3   13.4   13.3    91   11.9   5.0   NNE   0.42  10.0   NNE   12.9   13.4   13.0  1011.8  0.00   0.0   0.017   0.000   26.6    48   14.6   26.5   8.85 1.1573    117    1    100.0    5 
27/08/14   2:30   13.3   13.3   13.3    91   11.8   5.0     N   0.42   9.0   NNE   12.9   13.3   12.9  1011.9  0.00   0.0   0.018   0.000   26.5    48   14.6   26.4   8.86 1.1577    117    1    100.0    5 
27/08/14   2:35   13.2   13.3   13.2    91   11.8   6.0     N   0.50   9.0     N   12.6   13.3   12.6  1011.9  0.00   0.0   0.018   0.000   26.5    48   14.6   26.4   8.86 1.1577    116    1    100.0    5 
27/08/14   2:40   13.2   13.2   13.2    91   11.7   7.0   NNE   0.58  10.0     N   12.2   13.2   12.3  1011.9  0.00   0.0   0.018   0.000   26.5    48   14.6   26.4   8.86 1.1577    117    1    100.0    5 
27/08/14   2:45   13.1   13.2   13.1    91   11.7   7.0   NNE   0.58  10.0     N   12.2   13.2   12.2  1011.8  0.00   0.0   0.018   0.000   26.4    48   14.5   26.4   8.86 1.1579    116    1    100.0    5 
27/08/14   2:50   13.1   13.1   13.1    91   11.6   5.0   NNE   0.42  10.0   NNE   12.6   13.1   12.7  1011.9  0.00   0.0   0.018   0.000   26.4    48   14.5   26.4   8.86 1.1580    117    1    100.0    5 
27/08/14   2:55   13.0   13.1   13.0    92   11.7   6.0   NNE   0.50  11.0   NNE   12.3   13.1   12.3  1011.8  0.00   0.0   0.019   0.000   26.4    48   14.5   26.4   8.86 1.1579    116    1    100.0    5 
27/08/14   3:00   12.9   13.0   12.9    91   11.5   7.0   NNE   0.58  11.0   NNE   12.0   13.0   12.1  1011.8  0.00   0.0   0.019   0.000   26.4    48   14.5   26.3   8.86 1.1582    117    1    100.0    5 
27/08/14   3:05   12.9   12.9   12.9    92   11.7   7.0   NNE   0.58  11.0   NNE   12.0   13.0   12.1  1011.8  0.00   0.0   0.019   0.000   26.4    48   14.5   26.3   8.86 1.1582    116    1    100.0    5 
27/08/14   3:10   12.9   12.9   12.9    92   11.6   6.0   NNE   0.50  10.0   NNE   12.1   12.9   12.2  1011.9  0.00   0.0   0.019   0.000   26.4    48   14.5   26.3   8.86 1.1582    116    1    100.0    5 
27/08/14   3:15   12.9   12.9   12.9    92   11.6   6.0   NNE   0.50  10.0   NNE   12.1   12.9   12.2  1011.9  0.00   0.0   0.019   0.000   26.3    48   14.4   26.3   8.86 1.1586    116    1    100.0    5 
27/08/14   3:20   12.8   12.9   12.8    92   11.6   6.0   NNE   0.50  10.0   NNE   12.1   12.9   12.1  1011.8  0.00   0.0   0.019   0.000   26.3    48   14.4   26.3   8.86 1.1584    117    1    100.0    5 
27/08/14   3:25   12.8   12.8   12.8    92   11.5   5.0   NNE   0.42   8.0   NNE   12.3   12.8   12.3  1011.8  0.00   0.0   0.019   0.000   26.3    48   14.4   26.3   8.86 1.1584    117    1    100.0    5 
27/08/14   3:30   12.8   12.8   12.8    92   11.5   6.0   NNE   0.50  11.0   NNE   12.0   12.8   12.1  1011.7  0.00   0.0   0.019   0.000   26.3    48   14.4   26.3   8.86 1.1586    116    1    100.0    5 
27/08/14   3:35   12.8   12.8   12.8    92   11.5   6.0   NNE   0.50   9.0     N   12.0   12.8   12.1  1011.8  0.00   0.0   0.019   0.000   26.3    48   14.4   26.3   8.86 1.1588    114    1    100.0    5 
27/08/14   3:40   12.8   12.8   12.8    92   11.6   8.0   NNE   0.67  13.0    NE   11.4   12.9   11.5  1011.8  0.00   0.0   0.019   0.000   26.2    48   14.3   26.2   8.87 1.1590    117    1    100.0    5 
27/08/14   3:45   12.9   12.9   12.8    92   11.7   8.0   NNE   0.67  13.0   NNE   11.6   13.0   11.7  1011.8  0.00   0.0   0.019   0.000   26.2    48   14.3   26.2   8.87 1.1590    116    1    100.0    5 
27/08/14   3:50   12.9   12.9   12.9    92   11.7   7.0   NNE   0.58  11.0   NNE   12.0   13.0   12.1  1011.8  0.00   0.0   0.019   0.000   26.2    48   14.3   26.2   8.87 1.1590    117    1    100.0    5 
27/08/14   3:55   12.9   12.9   12.9    92   11.7   8.0   NNE   0.67  12.0   NNE   11.6   13.0   11.7  1011.9  0.00   0.0   0.019   0.000   26.2    48   14.3   26.2   8.87 1.1591    114    1    100.0    5 
27/08/14   4:00   12.9   12.9   12.9    92   11.7   7.0   NNE   0.58  11.0   NNE   12.0   13.0   12.1  1011.9  0.00   0.0   0.019   0.000   26.2    48   14.3   26.2   8.87 1.1594    117    1    100.0    5 
27/08/14   4:05   12.9   12.9   12.9    92   11.7   6.0   NNE   0.50   9.0   NNE   12.2   13.0   12.3  1012.0  0.00   0.0   0.019   0.000   26.2    48   14.3   26.2   8.87 1.1595    116    1    100.0    5 
27/08/14   4:10   12.9   12.9   12.9    92   11.7   6.0   NNE   0.50   9.0     N   12.2   13.0   12.3  1012.1  0.00   0.0   0.019   0.000   26.1    48   14.2   26.1   8.87 1.1599    117    1    100.0    5 
27/08/14   4:15   12.9   12.9   12.9    92   11.6   6.0   NNE   0.50  10.0     N   12.1   12.9   12.2  1012.2  0.00   0.0   0.019   0.000   26.1    48   14.2   26.1   8.87 1.1600    117    1    100.0    5 
27/08/14   4:20   12.9   12.9   12.9    92   11.6   6.0   NNE   0.50  12.0   NNE   12.1   12.9   12.2  1012.1  0.00   0.0   0.019   0.000   26.1    48   14.2   26.1   8.87 1.1599    116    1    100.0    5 
27/08/14   4:25   12.9   12.9   12.9    92   11.6   8.0   NNE   0.67  13.0   NNE   11.5   12.9   11.6  1012.1  0.00   0.0   0.019   0.000   26.1    48   14.2   26.1   8.87 1.1601    114    1    100.0    5 
27/08/14   4:30   12.9   12.9   12.9    92   11.7   8.0   NNE   0.67  12.0   NNE   11.6   13.0   11.7  1012.0  0.00   0.0   0.019   0.000   26.1    48   14.2   26.1   8.87 1.1601    117    1    100.0    5 
27/08/14   4:35   12.9   12.9   12.9    92   11.7   9.0   NNE   0.75  14.0    NE   11.2   13.0   11.3  1012.2  0.00   0.0   0.019   0.000   26.1    48   14.2   26.1   8.87 1.1603    117    1    100.0    5 
27/08/14   4:40   13.0   13.0   12.9    92   11.7   7.0   NNE   0.58  12.0    NE   12.1   13.1   12.1  1012.2  0.00   0.0   0.019   0.000   26.1    48   14.2   26.1   8.87 1.1603    117    1    100.0    5 
27/08/14   4:45   13.1   13.1   13.0    92   11.8   9.0   NNE   0.75  12.0   NNE   11.3   13.1   11.4  1012.2  0.00   0.0   0.018   0.000   26.0    48   14.1   26.0   8.87 1.1606    117    1    100.0    5 
27/08/14   4:50   13.1   13.1   13.1    92   11.8   9.0   NNE   0.75  14.0   NNE   11.3   13.1   11.4  1012.2  0.00   0.0   0.018   0.000   26.0    48   14.1   26.0   8.87 1.1606    116    1    100.0    5 
27/08/14   4:55   13.1   13.1   13.1    92   11.8   8.0   NNE   0.67  12.0   NNE   11.8   13.2   11.8  1012.3  0.00   0.0   0.018   0.000   26.0    48   14.1   26.0   8.87 1.1607    117    1    100.0    5 
27/08/14   5:00   13.1   13.1   13.1    92   11.8   8.0   NNE   0.67  13.0    NE   11.8   13.2   11.8  1012.2  0.00   0.0   0.018   0.000   26.0    48   14.1   26.0   8.87 1.1606    117    1    100.0    5 
27/08/14   5:05   13.2   13.2   13.1    92   11.9   8.0   NNE   0.67  14.0    NE   11.8   13.2   11.9  1012.2  0.00   0.0   0.018   0.000   25.9    48   14.1   25.9   8.88 1.1609    117    1    100.0    5 
27/08/14   5:10   13.2   13.2   13.2    92   11.9   7.0   NNE   0.58  11.0   NNE   12.2   13.2   12.3  1012.2  0.00   0.0   0.018   0.000   25.9    48   14.1   25.9   8.88 1.1608    117    1    100.0    5 
27/08/14   5:15   13.2   13.2   13.2    92   11.9   8.0   NNE   0.67  13.0   NNE   11.8   13.2   11.9  1012.2  0.00   0.0   0.018   0.000   25.9    48   14.1   25.9   8.88 1.1609    117    1    100.0    5 
27/08/14   5:20   13.2   13.2   13.2    92   12.0   8.0   NNE   0.67  13.0   NNE   11.9   13.3   12.0  1012.2  0.00   0.0   0.018   0.000   25.9    47   13.7   25.8   8.68 1.1616    117    1    100.0    5 
27/08/14   5:25   13.2   13.2   13.2    92   12.0   7.0   NNE   0.58  11.0   NNE   12.3   13.3   12.4  1012.3  0.00   0.0   0.018   0.000   25.9    48   14.0   25.8   8.88 1.1612    116    1    100.0    5 
27/08/14   5:30   13.3   13.3   13.2    92   12.0   9.0   NNE   0.75  13.0   NNE   11.6   13.3   11.7  1012.2  0.00   0.0   0.018   0.000   25.9    47   13.7   25.8   8.68 1.1616    117    1    100.0    5 
27/08/14   5:35   13.2   13.3   13.2    92   12.0   8.0   NNE   0.67  13.0   NNE   11.9   13.3   12.0  1012.2  0.00   0.0   0.018   0.000   25.8    47   13.7   25.7   8.68 1.1618    116    1    100.0    5 
27/08/14   5:40   13.3   13.3   13.2    92   12.0   8.0   NNE   0.67  13.0   NNE   12.0   13.3   12.1  1012.2  0.00   0.0   0.018   0.000   25.8    47   13.7   25.7   8.68 1.1618    117    1    100.0    5 
27/08/14   5:45   13.3   13.3   13.2    92   12.0   7.0   NNE   0.58  10.0   NNE   12.4   13.3   12.4  1012.3  0.00   0.0   0.018   0.000   25.8    47   13.6   25.7   8.68 1.1621    117    1    100.0    5 
27/08/14   5:50   13.3   13.3   13.3    92   12.0   7.0   NNE   0.58  11.0   NNE   12.4   13.3   12.4  1012.2  0.00   0.0   0.018   0.000   25.8    47   13.6   25.7   8.68 1.1621    118    1    100.0    5 
27/08/14   5:55   13.3   13.3   13.3    92   12.0   7.0   NNE   0.58  12.0    NE   12.4   13.3   12.4  1012.3  0.00   0.0   0.018   0.000   25.8    47   13.6   25.7   8.68 1.1621    115    1    100.0    5 
27/08/14   6:00   13.3   13.3   13.3    92   12.0   8.0   NNE   0.67  10.0   NNE   12.0   13.3   12.1  1012.2  0.00   0.0   0.018   0.000   25.7    47   13.6   25.6   8.68 1.1624    116    1    100.0    5 
27/08/14   6:05   13.3   13.3   13.3    92   12.1   7.0   NNE   0.58  11.0    NE   12.4   13.4   12.5  1012.3  0.00   0.0   0.017   0.000   25.7    47   13.6   25.6   8.68 1.1625    116    1    100.0    5 
27/08/14   6:10   13.4   13.4   13.3    92   12.1   7.0   NNE   0.58  12.0     N   12.5   13.4   12.6  1012.3  0.00   0.0   0.017   0.000   25.7    47   13.6   25.6   8.68 1.1625    117    1    100.0    5 
27/08/14   6:15   13.5   13.5   13.4    92   12.2   6.0   NNE   0.50  10.0   ENE   12.9   13.6   12.9  1012.3  0.00   0.0   0.017   0.000   25.7    47   13.6   25.6   8.68 1.1625    117    1    100.0    5 
27/08/14   6:20   13.6   13.6   13.5    92   12.3   6.0    NE   0.50  13.0    NE   12.9   13.6   13.0  1012.4  0.00   0.0   0.017   0.000   25.7    47   13.5   25.6   8.69 1.1629    117    1    100.0    5 
27/08/14   6:25   13.6   13.6   13.6    92   12.3   7.0   NNE   0.58  11.0   NNE   12.8   13.7   12.8  1012.5  0.00   0.0   0.016   0.000   25.7    47   13.5   25.6   8.69 1.1630    116    1    100.0    5 
27/08/14   6:30   13.7   13.7   13.6    92   12.4   7.0   NNE   0.58  13.0   NNE   12.8   13.7   12.9  1012.5  0.00   0.0   0.016   0.000   25.7    47   13.5   25.6   8.69 1.1630    117    1    100.0    5 
27/08/14   6:35   13.7   13.7   13.7    92   12.4   7.0   NNE   0.58  13.0    NE   12.8   13.7   12.9  1012.6  0.00   0.0   0.016   0.000   25.6    47   13.5   25.5   8.69 1.1633    116    1    100.0    5 
27/08/14   6:40   13.7   13.7   13.7    92   12.4   7.0   NNE   0.58  12.0   ENE   12.9   13.8   12.9  1012.6  0.00   0.0   0.016   0.000   25.6    47   13.5   25.5   8.69 1.1633    117    1    100.0    5 
27/08/14   6:45   13.7   13.7   13.7    92   12.4   7.0   NNE   0.58  13.0    NE   12.9   13.8   12.9  1012.6  0.00   0.0   0.016   0.000   25.6    47   13.5   25.5   8.69 1.1634    117    1    100.0    5 
27/08/14   6:50   13.8   13.8   13.7    92   12.5   7.0   NNE   0.58  11.0   NNE   13.0   13.8   13.1  1012.7  0.00   0.0   0.016   0.000   25.6    47   13.5   25.5   8.69 1.1635    117    1    100.0    5 
27/08/14   6:55   13.8   13.8   13.7    92   12.5   7.0   NNE   0.58  12.0    NE   13.0   13.8   13.1  1012.8  0.00   0.0   0.016   0.000   25.6    47   13.4   25.4   8.69 1.1638    118    1    100.0    5 
27/08/14   7:00   13.8   13.8   13.7    92   12.5   6.0   NNE   0.50  10.0    NE   13.2   13.8   13.3  1012.8  0.00   0.0   0.016   0.000   25.6    48   13.7   25.4   8.89 1.1635    115    1    100.0    5 
27/08/14   7:05   13.8   13.8   13.8    92   12.6   6.0    NE   0.50  11.0   NNE   13.3   13.9   13.3  1012.8  0.00   0.0   0.016   0.000   25.5    48   13.7   25.4   8.89 1.1638    116    1    100.0    5 
27/08/14   7:10   13.8   13.8   13.8    92   12.6   7.0    NE   0.58  12.0    NE   13.1   13.9   13.1  1012.9  0.00   0.0   0.016   0.000   25.5    48   13.7   25.4   8.89 1.1639    115    1    100.0    5 
27/08/14   7:15   13.9   13.9   13.8    92   12.6   6.0    NE   0.50  11.0   NNE   13.3   13.9   13.4  1012.9  0.00   0.0   0.015   0.000   25.5    48   13.7   25.4   8.89 1.1639    116    1    100.0    5 
27/08/14   7:20   13.9   13.9   13.9    92   12.7   5.0   NNE   0.42  11.0    NE   13.6   14.0   13.7  1012.9  0.00   0.0   0.015   0.000   25.5    48   13.7   25.4   8.89 1.1639    114    1    100.0    5 
27/08/14   7:25   14.0   14.0   13.9    92   12.7   5.0   NNE   0.42  11.0   NNE   13.7   14.1   13.7  1012.9  0.00   0.0   0.015   0.000   25.4    48   13.6   25.3   8.89 1.1642    117    1    100.0    5 
27/08/14   7:30   14.0   14.1   14.0    92   12.7   5.0    NE   0.42  11.0   ENE   13.7   14.1   13.7  1013.0  0.00   0.0   0.015   0.000   25.4    48   13.6   25.3   8.89 1.1643    116    1    100.0    5 
27/08/14   7:35   14.1   14.1   14.1    92   12.8   6.0    NE   0.50  10.0   NNE   13.6   14.2   13.7  1013.0  0.00   0.0   0.015   0.000   25.4    48   13.6   25.3   8.89 1.1643    116    1    100.0    5 
27/08/14   7:40   14.1   14.1   14.1    92   12.8   7.0    NE   0.58  12.0    NE   13.4   14.2   13.5  1013.1  0.00   0.0   0.015   0.000   25.4    48   13.6   25.3   8.89 1.1644    117    1    100.0    5 
27/08/14   7:45   14.2   14.2   14.1    92   12.9   7.0   NNE   0.58  11.0   NNE   13.4   14.3   13.6  1013.1  0.00   0.0   0.014   0.000   25.4    48   13.6   25.3   8.90 1.1647    116    1    100.0    5 
27/08/14   7:50   14.2   14.2   14.2    92   12.9   5.0    NE   0.42  10.0    NE   13.9   14.3   14.1  1013.1  0.00   0.0   0.014   0.000   25.4    48   13.6   25.3   8.90 1.1646    117    1    100.0    5 
27/08/14   7:55   14.3   14.3   14.2    92   13.0   6.0   NNE   0.50  10.0    NE   13.8   14.4   13.9  1013.1  0.00   0.0   0.014   0.000   25.4    48   13.6   25.3   8.90 1.1647    117    1    100.0    5 
27/08/14   8:00   14.3   14.3   14.3    92   13.1   6.0   NNE   0.50  10.0   NNE   13.9   14.4   14.0  1013.1  0.00   0.0   0.014   0.000   25.4    48   13.6   25.3   8.90 1.1647    117    1    100.0    5 
27/08/14   8:05   14.3   14.4   14.3    91   12.9   6.0   NNE   0.50  11.0   NNE   13.9   14.4   13.9  1013.1  0.00   0.0   0.014   0.000   25.4    48   13.6   25.3   8.90 1.1646    116    1    100.0    5 
27/08/14   8:10   14.4   14.4   14.3    92   13.2   5.0    NE   0.42  10.0   NNE   14.2   14.6   14.3  1013.0  0.00   0.0   0.014   0.000   25.4    48   13.6   25.3   8.90 1.1646    117    1    100.0    5 
27/08/14   8:15   14.6   14.6   14.4    92   13.3   6.0   NNE   0.50   9.0    NE   14.1   14.7   14.2  1013.1  0.00   0.0   0.013   0.000   25.3    48   13.5   25.2   8.90 1.1649    117    1    100.0    5 
27/08/14   8:20   14.7   14.7   14.6    92   13.4   5.0    NE   0.42   9.0   ENE   14.5   14.8   14.6  1013.2  0.00   0.0   0.013   0.000   25.3    48   13.5   25.2   8.90 1.1651    117    1    100.0    5 
27/08/14   8:25   14.7   14.7   14.7    91   13.3   4.0    NE   0.33   9.0   ENE   14.7   14.8   14.8  1013.3  0.00   0.0   0.013   0.000   25.3    48   13.5   25.2   8.90 1.1652    115    1    100.0    5 
27/08/14   8:30   14.8   14.8   14.7    91   13.3   3.0    NE   0.25   8.0   ENE   14.8   14.9   14.9  1013.3  0.00   0.0   0.012   0.000   25.3    48   13.5   25.2   8.90 1.1655    117    1    100.0    5 
27/08/14   8:35   14.8   14.9   14.8    91   13.4   3.0    NE   0.25   7.0    NE   14.8   14.9   14.9  1013.3  0.00   0.0   0.012   0.000   25.3    48   13.5   25.2   8.90 1.1652    117    1    100.0    5 
27/08/14   8:40   14.9   14.9   14.9    91   13.5   3.0    NE   0.25   6.0   NNE   14.9   15.1   15.1  1013.4  0.00   0.0   0.012   0.000   25.3    48   13.5   25.2   8.90 1.1653    117    1    100.0    5 
27/08/14   8:45   14.9   14.9   14.9    91   13.5   3.0    NE   0.25   7.0   NNE   14.9   15.1   15.1  1013.4  0.00   0.0   0.012   0.000   25.3    48   13.5   25.2   8.90 1.1656    116    1    100.0    5 
27/08/14   8:50   14.9   14.9   14.9    91   13.5   3.0   NNE   0.25   6.0   NNE   14.9   15.1   15.1  1013.4  0.00   0.0   0.012   0.000   25.3    48   13.5   25.2   8.90 1.1656    116    1    100.0    5 
27/08/14   8:55   15.1   15.1   14.9    91   13.6   3.0    NE   0.25   8.0   ENE   15.1   15.2   15.2  1013.5  0.00   0.0   0.011   0.000   25.3    48   13.5   25.2   8.90 1.1658    115    1    100.0    5 
27/08/14   9:00   15.1   15.1   15.0    91   13.7   5.0   ENE   0.42  10.0   ENE   15.0   15.3   15.2  1013.4  0.00   0.0   0.011   0.000   25.3    48   13.5   25.2   8.90 1.1656    117    1    100.0    5 
27/08/14   9:05   15.2   15.2   15.1    91   13.8   5.0   ENE   0.42  10.0    NE   15.2   15.4   15.3  1013.4  0.00   0.0   0.011   0.000   25.3    48   13.5   25.2   8.90 1.1656    116    1    100.0    5 
27/08/14   9:10   15.3   15.3   15.2    91   13.9   8.0   ENE   0.67  14.0   ENE   14.4   15.5   14.6  1013.4  0.00   0.0   0.010   0.000   25.3    48   13.5   25.2   8.90 1.1656    117    1    100.0    5 
27/08/14   9:15   15.4   15.4   15.3    90   13.8   8.0   ENE   0.67  13.0   ENE   14.6   15.6   14.8  1013.4  0.00   0.0   0.010   0.000   25.3    48   13.5   25.2   8.90 1.1656    117    1    100.0    5 
27/08/14   9:20   15.5   15.5   15.4    90   13.9   7.0   ENE   0.58  14.0   ENE   15.1   15.7   15.2  1013.4  0.00   0.0   0.010   0.000   25.3    48   13.5   25.2   8.90 1.1656    115    1    100.0    5 
27/08/14   9:25   15.6   15.6   15.5    90   13.9   6.0   ENE   0.50  11.0    NE   15.3   15.7   15.5  1013.5  0.00   0.0   0.010   0.000   25.3    48   13.5   25.2   8.90 1.1657    117    1    100.0    5 
27/08/14   9:30   15.6   15.6   15.6    90   14.0   6.0   ENE   0.50  11.0   ENE   15.4   15.8   15.6  1013.5  0.00   0.0   0.009   0.000   25.3    48   13.5   25.2   8.90 1.1654    116    1    100.0    5 
27/08/14   9:35   15.7   15.7   15.6    89   13.9   9.0   ENE   0.75  13.0     E   14.4   15.8   14.6  1013.5  0.00   0.0   0.009   0.000   25.3    48   13.5   25.2   8.90 1.1654    116    1    100.0    5 
27/08/14   9:40   15.7   15.7   15.7    89   13.9   8.0   ENE   0.67  17.0    NE   14.9   15.9   15.1  1013.4  0.00   0.0   0.009   0.000   25.3    48   13.5   25.2   8.90 1.1654    117    1    100.0    5 
27/08/14   9:45   15.8   15.8   15.7    89   14.0   6.0   ENE   0.50  12.0   ENE   15.7   16.0   15.8  1013.5  0.00   0.0   0.009   0.000   25.4    48   13.6   25.3   8.90 1.1652    117    1    100.0    5 
27/08/14   9:50   15.9   15.9   15.8    89   14.1   8.0     E   0.67  13.0     E   15.2   16.1   15.3  1013.6  0.00   0.0   0.008   0.000   25.4    48   13.6   25.3   8.90 1.1652    117    1    100.0    5 
27/08/14   9:55   16.1   16.1   15.9    89   14.2   6.0   ENE   0.50  10.0     E   15.9   16.3   16.2  1013.6  0.00   0.0   0.008   0.000   25.4    49   13.9   25.4   8.99 1.1646    117    1    100.0    5 
27/08/14  10:00   16.2   16.2   16.1    88   14.2   9.0     E   0.75  16.0     E   15.1   16.4   15.2  1013.6  0.00   0.0   0.007   0.000   25.4    49   13.9   25.4   8.99 1.1646    117    1    100.0    5 
27/08/14  10:05   16.3   16.3   16.2    88   14.3  12.0     E   1.00  17.0     E   14.0   16.4   14.2  1013.6  0.00   0.0   0.007   0.000   25.5    49   14.0   25.4   8.99 1.1643    117    1    100.0    5 
27/08/14  10:10   16.3   16.3   16.3    87   14.2  13.0     E   1.08  19.0     E   13.8   16.5   14.0  1013.8  0.00   0.0   0.007   0.000   25.6    49   14.1   25.5   8.99 1.1642    115    1    100.0    5 
27/08/14  10:15   16.4   16.4   16.3    87   14.2  12.0     E   1.00  19.0     E   14.2   16.6   14.3  1013.8  0.00   0.0   0.007   0.000   25.6    49   14.1   25.6   8.99 1.1640    117    1    100.0    5 
27/08/14  10:20   16.4   16.4   16.4    86   14.0  13.0     E   1.08  18.0     E   13.9   16.6   14.1  1013.8  0.00   0.0   0.007   0.000   25.6    49   14.1   25.6   8.99 1.1640    117    1    100.0    5 
27/08/14  10:25   16.4   16.4   16.4    86   14.0  13.0     E   1.08  18.0     E   13.9   16.6   14.1  1013.9  0.00   0.0   0.007   0.000   25.7    49   14.2   25.7   8.99 1.1638    117    1    100.0    5 
27/08/14  10:30   16.4   16.4   16.4    86   14.1  12.0     E   1.00  21.0     E   14.2   16.6   14.4  1013.9  0.00   0.0   0.007   0.000   25.7    49   14.2   25.7   8.99 1.1639    117    1    100.0    5 
27/08/14  10:35   16.5   16.5   16.4    86   14.1  13.0     E   1.08  19.0     E   14.0   16.7   14.2  1013.9  0.00   0.0   0.006   0.000   25.7    49   14.2   25.7   8.98 1.1635    116    1    100.0    5 
27/08/14  10:40   16.6   16.6   16.5    86   14.3  12.0     E   1.00  19.0     E   14.4   16.8   14.6  1013.9  0.00   0.0   0.006   0.000   25.7    49   14.2   25.7   8.98 1.1635    113    1     99.1    5 
27/08/14  10:45   16.7   16.7   16.6    86   14.4  14.0     E   1.17  21.0     E   14.1   16.9   14.3  1014.0  0.00   0.0   0.006   0.000   25.7    49   14.2   25.7   8.98 1.1637    117    1    100.0    5 
27/08/14  10:50   16.8   16.8   16.7    86   14.4  14.0     E   1.17  20.0   ESE   14.1   17.0   14.3  1014.0  0.00   0.0   0.005   0.000   25.8    49   14.3   25.8   8.98 1.1634    117    1    100.0    5 
27/08/14  10:55   16.9   16.9   16.8    86   14.6  13.0     E   1.08  19.0     E   14.6   17.2   14.8  1014.0  0.00   0.0   0.005   0.000   25.8    49   14.3   25.8   8.98 1.1633    114    1    100.0    5 
27/08/14  11:00   17.1   17.1   16.9    86   14.7  11.0   ESE   0.92  19.0     E   15.2   17.3   15.5  1014.0  0.00   0.0   0.004   0.000   25.8    49   14.3   25.8   8.98 1.1633    115    1    100.0    5 
27/08/14  11:05   17.2   17.2   17.1    86   14.8  12.0   ESE   1.00  17.0   ESE   15.1   17.4   15.3  1014.0  0.00   0.0   0.004   0.000   25.8    49   14.3   25.8   8.98 1.1631    117    1    100.0    5 
27/08/14  11:10   17.2   17.2   17.2    85   14.6  12.0     E   1.00  17.0     E   15.1   17.4   15.3  1014.0  0.00   0.0   0.004   0.000   25.9    49   14.4   25.9   8.98 1.1628    115    1    100.0    5 
27/08/14  11:15   17.3   17.3   17.2    86   14.9  13.0     E   1.08  21.0     E   14.9   17.6   15.2  1014.0  0.00   0.0   0.004   0.000   25.9    49   14.4   25.9   8.98 1.1628    117    1    100.0    5 
27/08/14  11:20   17.4   17.4   17.3    85   14.8  13.0     E   1.08  18.0     E   15.0   17.7   15.3  1013.9  0.00   0.0   0.003   0.000   25.9    49   14.4   25.9   8.98 1.1624    116    1    100.0    5 
27/08/14  11:25   17.3   17.4   17.3    85   14.8  13.0     E   1.08  18.0   ESE   14.9   17.6   15.2  1013.9  0.00   0.0   0.003   0.000   25.9    49   14.4   25.9   8.98 1.1624    117    1    100.0    5 
27/08/14  11:30   17.4   17.4   17.4    84   14.7  13.0     E   1.08  21.0     E   15.0   17.7   15.3  1013.9  0.00   0.0   0.003   0.000   26.0    49   14.5   26.1   8.97 1.1622    116    1    100.0    5 
27/08/14  11:35   17.4   17.4   17.4    84   14.7  13.0     E   1.08  19.0     E   15.0   17.7   15.3  1013.9  0.00   0.0   0.003   0.000   26.0    49   14.5   26.1   8.97 1.1621    117    1    100.0    5 
27/08/14  11:40   17.4   17.4   17.4    84   14.7  13.0     E   1.08  19.0     E   15.0   17.7   15.3  1013.8  0.00   0.0   0.003   0.000   26.1    49   14.5   26.1   8.97 1.1617    117    1    100.0    5 
27/08/14  11:45   17.4   17.5   17.4    84   14.7  12.0     E   1.00  17.0   ESE   15.3   17.7   15.6  1013.8  0.00   0.0   0.003   0.000   26.1    49   14.6   26.2   8.97 1.1614    116    1    100.0    5 
27/08/14  11:50   17.5   17.5   17.4    84   14.8  14.0     E   1.17  21.0     E   14.9   17.8   15.2  1013.7  0.00   0.0   0.003   0.000   26.2    49   14.6   26.2   8.97 1.1610    117    1    100.0    5 
27/08/14  11:55   17.6   17.6   17.5    84   14.9  13.0     E   1.08  18.0   ESE   15.3   17.9   15.6  1013.6  0.00   0.0   0.003   0.000   26.2    49   14.6   26.2   8.97 1.1610    115    1    100.0    5 
27/08/14  12:00   17.7   17.7   17.6    84   14.9  13.0     E   1.08  19.0     E   15.3   18.0   15.7  1013.5  0.00   0.0   0.002   0.000   26.2    49   14.7   26.3   8.97 1.1606    117    1    100.0    5 
27/08/14  12:05   17.7   17.7   17.7    84   15.0  12.0     E   1.00  18.0   ENE   15.7   18.1   16.0  1013.5  0.00   0.0   0.002   0.000   26.2    49   14.7   26.3   8.97 1.1606    116    1    100.0    5 
27/08/14  12:10   17.9   17.9   17.7    85   15.4  11.0     E   0.92  16.0     E   16.3   18.3   16.7  1013.4  0.00   0.0   0.001   0.000   26.3    49   14.7   26.3   8.96 1.1602    117    1    100.0    5 
27/08/14  12:15   18.1   18.1   17.9    84   15.3  13.0     E   1.08  18.0     E   15.8   18.4   16.2  1013.5  0.00   0.0   0.001   0.000   26.3    49   14.8   26.4   8.96 1.1600    115    1    100.0    5 
27/08/14  12:20   18.3   18.3   18.1    84   15.6  12.0     E   1.00  17.0     E   16.4   18.8   16.8  1013.5  0.00   0.0   0.000   0.000   26.3    49   14.8   26.4   8.96 1.1601    116    1    100.0    5 
27/08/14  12:25   18.6   18.6   18.3    84   15.9  12.0     E   1.00  17.0     E   16.7   19.1   17.2  1013.6  0.00   0.0   0.000   0.001   26.4    49   14.8   26.4   8.96 1.1598    117    1    100.0    5 
27/08/14  12:30   18.9   18.9   18.6    83   16.0  11.0     E   0.92  18.0     E   17.4   19.5   18.0  1013.5  0.00   0.0   0.000   0.002   26.4    49   14.9   26.4   8.96 1.1595    116    1    100.0    5 
27/08/14  12:35   19.3   19.3   19.0    82   16.2  12.0     E   1.00  17.0     E   17.6   19.9   18.2  1013.5  0.00   0.0   0.000   0.003   26.5    49   14.9   26.5   8.96 1.1592    117    1    100.0    5 
27/08/14  12:40   19.6   19.6   19.3    81   16.3  11.0     E   0.92  18.0     E   18.2   20.3   18.8  1013.5  0.00   0.0   0.000   0.004   26.6    49   15.0   26.6   8.95 1.1590    117    1    100.0    5 
27/08/14  12:45   19.8   19.8   19.6    80   16.3  10.0     E   0.83  16.0     E   18.7   20.5   19.3  1013.5  0.00   0.0   0.000   0.005   26.6    49   15.0   26.6   8.95 1.1587    116    1    100.0    5 
27/08/14  12:50   19.8   19.8   19.8    79   16.0  11.0     E   0.92  17.0     E   18.3   20.4   18.9  1013.6  0.00   0.0   0.000   0.005   26.7    49   15.1   26.7   8.95 1.1585    115    1    100.0    5 
27/08/14  12:55   19.7   19.8   19.7    79   15.9  12.0     E   1.00  17.0   ESE   17.9   20.3   18.5  1013.6  0.00   0.0   0.000   0.005   26.7    49   15.1   26.7   8.95 1.1582    117    1    100.0    5 
27/08/14  13:00   19.5   19.7   19.5    79   15.8  11.0   ESE   0.92  16.0   ESE   18.1   20.1   18.6  1013.5  0.00   0.0   0.000   0.004   26.8    49   15.2   26.8   8.95 1.1579    117    1    100.0    5 
27/08/14  13:05   19.3   19.4   19.3    79   15.5  11.0     E   0.92  18.0   ESE   17.8   19.8   18.4  1013.5  0.00   0.0   0.000   0.003   26.8    50   15.5   26.9   9.14 1.1571    116    1    100.0    5 
27/08/14  13:10   19.1   19.3   19.1    80   15.5  13.0   ESE   1.08  18.0     E   16.9   19.6   17.5  1013.5  0.00   0.0   0.000   0.003   26.9    49   15.3   26.9   8.94 1.1573    118    1    100.0    5 
27/08/14  13:15   18.7   19.1   18.7    80   15.2  12.0     E   1.00  18.0     E   16.8   19.2   17.3  1013.7  0.00   0.0   0.000   0.001   26.9    49   15.3   26.9   8.94 1.1571    117    1    100.0    5 
27/08/14  13:20   18.6   18.7   18.6    81   15.2  12.0   ESE   1.00  17.0     E   16.6   19.0   17.1  1013.6  0.00   0.0   0.000   0.001   27.0    49   15.4   27.0   8.94 1.1568    117    1    100.0    5 
27/08/14  13:25   18.6   18.6   18.6    82   15.5  11.0   ESE   0.92  17.0     E   17.1   19.1   17.5  1013.5  0.00   0.0   0.000   0.001   27.0    49   15.4   27.0   8.94 1.1567    117    1    100.0    5 
27/08/14  13:30   18.8   18.8   18.6    83   15.8  12.0   ESE   1.00  16.0   ESE   16.9   19.3   17.4  1013.4  0.00   0.0   0.000   0.002   27.1    49   15.4   27.1   8.94 1.1563    117    1    100.0    5 
27/08/14  13:35   19.0   19.0   18.8    83   16.0  12.0     E   1.00  17.0     E   17.1   19.6   17.7  1013.3  0.00   0.0   0.000   0.002   27.1    49   15.4   27.1   8.94 1.1561    114    1    100.0    5 
27/08/14  13:40   19.2   19.2   19.0    82   16.0  12.0     E   1.00  16.0     E   17.3   19.8   17.9  1013.3  0.00   0.0   0.000   0.003   27.1    49   15.5   27.2   8.93 1.1559    117    1    100.0    5 
27/08/14  13:45   19.2   19.2   19.2    82   16.1  12.0     E   1.00  16.0   ENE   17.4   19.8   18.0  1013.3  0.00   0.0   0.000   0.003   27.1    49   15.5   27.2   8.93 1.1559    117    1    100.0    5 
27/08/14  13:50   19.3   19.3   19.2    82   16.1  11.0     E   0.92  18.0   ESE   17.8   19.9   18.4  1013.4  0.00   0.0   0.000   0.003   27.1    49   15.5   27.2   8.93 1.1560    115    1    100.0    5 
27/08/14  13:55   19.3   19.3   19.3    81   15.9  12.0     E   1.00  17.0     E   17.4   19.9   18.1  1013.4  0.00   0.0   0.000   0.003   27.2    49   15.5   27.2   8.93 1.1557    115    1    100.0    5 
27/08/14  14:00   19.2   19.2   19.2    81   15.8  12.0     E   1.00  16.0     E   17.3   19.7   17.9  1013.4  0.00   0.0   0.000   0.003   27.2    49   15.5   27.2   8.93 1.1557    117    1    100.0    5 
27/08/14  14:05   19.1   19.2   19.1    81   15.8  12.0   ESE   1.00  17.0     E   17.3   19.7   17.8  1013.3  0.00   0.0   0.000   0.003   27.2    49   15.6   27.3   8.93 1.1554    116    1    100.0    5 
27/08/14  14:10   18.9   19.1   18.9    81   15.6  13.0     E   1.08  17.0     E   16.7   19.4   17.2  1013.3  0.00   0.0   0.000   0.002   27.2    49   15.6   27.3   8.93 1.1553    116    1    100.0    5 
27/08/14  14:15   18.8   18.9   18.8    82   15.6  12.0     E   1.00  17.0     E   16.9   19.3   17.4  1013.2  0.00   0.0   0.000   0.002   27.2    49   15.6   27.3   8.93 1.1553    118    1    100.0    5 
27/08/14  14:20   18.8   18.8   18.8    82   15.6  12.0     E   1.00  17.0     E   16.9   19.3   17.4  1013.1  0.00   0.0   0.000   0.002   27.3    49   15.6   27.3   8.93 1.1549    116    1    100.0    5 
27/08/14  14:25   18.8   18.8   18.8    83   15.9  12.0     E   1.00  17.0     E   16.9   19.3   17.4  1013.2  0.00   0.0   0.000   0.002   27.3    49   15.6   27.3   8.93 1.1549    117    1    100.0    5 
27/08/14  14:30   18.8   18.8   18.8    83   15.9  10.0     E   0.83  16.0   ESE   17.7   19.3   18.2  1013.2  0.00   0.0   0.000   0.002   27.3    49   15.7   27.4   8.93 1.1546    117    1    100.0    5 
27/08/14  14:35   18.7   18.8   18.7    83   15.8  12.0   ESE   1.00  17.0     E   16.8   19.2   17.3  1013.2  0.00   0.0   0.000   0.001   27.3    49   15.7   27.4   8.93 1.1546    117    1    100.0    5 
27/08/14  14:40   18.6   18.7   18.6    83   15.6  12.0     E   1.00  17.0     E   16.6   19.0   17.1  1013.2  0.00   0.0   0.000   0.001   27.3    49   15.7   27.4   8.93 1.1546    117    1    100.0    5 
27/08/14  14:45   18.4   18.6   18.4    83   15.5  12.0   ESE   1.00  18.0   ESE   16.5   18.9   16.9  1013.1  0.00   0.0   0.000   0.000   27.4    49   15.7   27.5   8.92 1.1543    117    1    100.0    5 
27/08/14  14:50   18.4   18.4   18.4    84   15.6  11.0   ESE   0.92  17.0   ESE   16.8   18.8   17.2  1013.1  0.00   0.0   0.000   0.000   27.4    49   15.7   27.5   8.92 1.1542    117    1    100.0    5 
27/08/14  14:55   18.3   18.4   18.3    85   15.7  11.0   ESE   0.92  17.0   ESE   16.7   18.7   17.1  1013.2  0.00   0.0   0.000   0.000   27.4    49   15.7   27.5   8.92 1.1544    117    1    100.0    5 
27/08/14  15:00   18.1   18.3   18.1    86   15.7  12.0   ESE   1.00  17.0   ESE   16.1   18.4   16.4  1013.1  0.00   0.0   0.001   0.000   27.4    49   15.8   27.6   8.92 1.1540    117    1    100.0    5 
27/08/14  15:05   17.9   18.1   17.9    87   15.7  12.0   ESE   1.00  17.0     E   15.8   18.3   16.2  1013.1  0.00   0.0   0.002   0.000   27.4    49   15.8   27.6   8.92 1.1540    117    1    100.0    5 
27/08/14  15:10   17.8   17.9   17.8    88   15.8  12.0   ESE   1.00  16.0     E   15.7   18.2   16.1  1013.1  0.00   0.0   0.002   0.000   27.4    49   15.8   27.6   8.92 1.1539    117    1    100.0    5 
27/08/14  15:15   17.7   17.8   17.7    88   15.7  12.0   ESE   1.00  19.0     E   15.7   18.1   16.1  1013.0  0.00   0.0   0.002   0.000   27.4    49   15.8   27.6   8.92 1.1539    116    1    100.0    5 
27/08/14  15:20   17.7   17.7   17.7    89   15.9  13.0   ESE   1.08  18.0     E   15.4   18.2   15.8  1012.9  0.00   0.0   0.002   0.000   27.4    49   15.8   27.6   8.92 1.1537    115    1    100.0    5 
27/08/14  15:25   17.8   17.8   17.7    90   16.1  11.0   ESE   0.92  16.0   ESE   16.1   18.2   16.5  1012.8  0.00   0.0   0.002   0.000   27.4    49   15.8   27.6   8.92 1.1536    117    1    100.0    5 
27/08/14  15:30   17.9   17.9   17.8    90   16.2  12.0     E   1.00  17.0     E   15.8   18.3   16.3  1012.8  0.00   0.0   0.002   0.000   27.4    49   15.8   27.6   8.92 1.1536    116    1    100.0    5 
27/08/14  15:35   18.0   18.0   17.9    90   16.3  12.0   ESE   1.00  17.0   ESE   16.0   18.5   16.5  1012.7  0.00   0.0   0.001   0.000   27.4    49   15.8   27.6   8.92 1.1535    115    1    100.0    5 
27/08/14  15:40   18.2   18.2   18.0    91   16.7  12.0   ESE   1.00  18.0   ESE   16.3   18.8   16.8  1012.8  0.00   0.0   0.000   0.000   27.4    48   15.5   27.5   8.82 1.1540    115    1    100.0    5 
27/08/14  15:45   18.3   18.3   18.2    90   16.7  11.0   ESE   0.92  16.0   ESE   16.7   18.9   17.3  1012.8  0.00   0.0   0.000   0.000   27.4    48   15.5   27.5   8.82 1.1540    115    1    100.0    5 
27/08/14  15:50   18.4   18.4   18.3    90   16.7  12.0   ESE   1.00  18.0     E   16.4   18.9   17.0  1012.7  0.00   0.0   0.000   0.000   27.5    48   15.5   27.6   8.82 1.1537    116    1    100.0    5 
27/08/14  15:55   18.2   18.3   18.2    90   16.5  12.0   ESE   1.00  18.0   ESE   16.2   18.7   16.7  1012.7  0.00   0.0   0.001   0.000   27.5    48   15.5   27.6   8.82 1.1536    117    1    100.0    5 
27/08/14  16:00   18.1   18.2   18.1    90   16.4  11.0   ESE   0.92  17.0     E   16.4   18.6   16.9  1012.7  0.00   0.0   0.001   0.000   27.4    49   15.8   27.6   8.92 1.1535    117    1    100.0    5 
27/08/14  16:05   17.9   18.1   17.9    90   16.3  12.0   ESE   1.00  17.0   ESE   15.9   18.4   16.4  1012.6  0.00   0.0   0.001   0.000   27.4    50   16.1   27.7   9.12 1.1530    117    1    100.0    5 
27/08/14  16:10   17.8   17.9   17.8    90   16.2  14.0   ESE   1.17  18.0   ESE   15.3   18.3   15.7  1012.6  0.00   0.0   0.002   0.000   27.3    50   16.0   27.5   9.13 1.1535    116    1    100.0    5 
27/08/14  16:15   17.8   17.8   17.7    90   16.1  13.0   ESE   1.08  18.0   ESE   15.4   18.2   15.9  1012.5  0.00   0.0   0.002   0.000   27.2    50   15.9   27.3   9.13 1.1540    117    1    100.0    5 
27/08/14  16:20   17.7   17.8   17.7    90   16.1  13.0   ESE   1.08  17.0   ESE   15.4   18.2   15.8  1012.5  0.00   0.0   0.002   0.000   27.1    51   16.1   27.3   9.33 1.1541    117    1    100.0    5 
27/08/14  16:25   17.6   17.7   17.6    90   16.0  14.0   ESE   1.17  19.0   ESE   15.1   18.1   15.5  1012.5  0.00   0.0   0.003   0.000   27.0    51   16.0   27.2   9.34 1.1546    116    1    100.0    5 
27/08/14  16:30   17.6   17.7   17.6    90   15.9  16.0   ESE   1.33  21.0   ESE   14.6   18.0   15.1  1012.4  0.00   0.0   0.003   0.000   26.9    51   15.9   27.1   9.34 1.1551    117    1    100.0    5 
27/08/14  16:35   17.5   17.6   17.5    91   16.0  15.0   ESE   1.25  19.0   ESE   14.8   17.9   15.2  1012.4  0.00   0.0   0.003   0.000   26.8    51   15.8   26.9   9.35 1.1557    117    1    100.0    5 
27/08/14  16:40   17.5   17.6   17.5    91   16.0  15.0   ESE   1.25  19.0   ESE   14.8   17.9   15.2  1012.4  0.00   0.0   0.003   0.000   26.6    52   15.9   26.8   9.45 1.1561    115    1    100.0    5 
27/08/14  16:45   17.5   17.5   17.5    91   16.0  14.0   ESE   1.17  18.0   ESE   14.9   17.9   15.4  1012.4  0.00   0.0   0.003   0.000   26.5    52   15.8   26.7   9.46 1.1567    117    1    100.0    5 
27/08/14  16:50   17.5   17.5   17.5    91   16.0  14.0   ESE   1.17  18.0   ESE   14.9   17.9   15.4  1012.4  0.00   0.0   0.003   0.000   26.4    52   15.7   26.6   9.46 1.1572    116    1    100.0    5 
27/08/14  16:55   17.5   17.5   17.4    91   16.0  15.0   ESE   1.25  18.0   ESE   14.8   17.9   15.2  1012.4  0.00   0.0   0.003   0.000   26.3    53   15.9   26.5   9.65 1.1574    116    1    100.0    5 
27/08/14  17:00   17.6   17.6   17.5    91   16.1  15.0   ESE   1.25  18.0   ESE   14.9   18.1   15.3  1012.2  0.00   0.0   0.003   0.000   26.2    53   15.9   26.4   9.65 1.1575    117    1    100.0    5 
27/08/14  17:05   17.6   17.6   17.6    91   16.1  15.0   ESE   1.25  19.0     E   14.9   18.1   15.3  1012.1  0.00   0.0   0.003   0.000   26.1    53   15.8   26.3   9.65 1.1580    117    1    100.0    5 
27/08/14  17:10   17.6   17.6   17.6    91   16.1  15.0   ESE   1.25  18.0   ESE   14.8   18.0   15.3  1012.1  0.00   0.0   0.003   0.000   26.0    53   15.7   26.2   9.65 1.1585    115    1    100.0    5 
27/08/14  17:15   17.7   17.7   17.6    91   16.2  13.0   ESE   1.08  18.0     E   15.3   18.1   15.8  1012.0  0.00   0.0   0.002   0.000   25.9    54   15.9   26.2   9.78 1.1586    117    1    100.0    5 
27/08/14  17:20   17.7   17.7   17.7    91   16.2  12.0   ESE   1.00  18.0   ESE   15.7   18.2   16.1  1012.1  0.00   0.0   0.002   0.000   25.8    54   15.8   26.1   9.78 1.1590    117    1    100.0    5 
27/08/14  17:25   17.8   17.8   17.7    91   16.3  14.0   ESE   1.17  17.0   ESE   15.3   18.3   15.8  1012.1  0.00   0.0   0.002   0.000   25.7    54   15.7   25.9   9.78 1.1596    118    1    100.0    5 
27/08/14  17:30   17.9   17.9   17.8    91   16.5  13.0   ESE   1.08  17.0   ESE   15.7   18.4   16.2  1012.1  0.00   0.0   0.001   0.000   25.6    54   15.6   25.8   9.79 1.1601    117    1    100.0    5 
27/08/14  17:35   18.0   18.0   17.9    90   16.3  13.0   ESE   1.08  17.0   ESE   15.7   18.5   16.2  1012.0  0.00   0.0   0.001   0.000   25.6    55   15.8   25.8   9.93 1.1599    117    1    100.0    5 
27/08/14  17:40   18.1   18.1   18.0    90   16.4  13.0   ESE   1.08  16.0   ESE   15.8   18.6   16.3  1012.1  0.00   0.0   0.001   0.000   25.5    56   16.1   25.8  10.13 1.1599    115    1    100.0    5 
27/08/14  17:45   18.1   18.1   18.1    90   16.4  14.0   ESE   1.17  16.0   ESE   15.6   18.6   16.1  1012.1  0.00   0.0   0.001   0.000   25.4    56   16.0   25.7  10.14 1.1602    115    1    100.0    5 
27/08/14  17:50   18.1   18.1   18.1    90   16.4  14.0   ESE   1.17  17.0   ESE   15.6   18.6   16.1  1012.2  0.00   0.0   0.001   0.000   25.4    56   16.0   25.7  10.14 1.1606    117    1    100.0    5 
27/08/14  17:55   18.1   18.1   18.1    90   16.4  13.0   ESE   1.08  16.0   ESE   15.8   18.6   16.3  1012.1  0.00   0.0   0.001   0.000   25.3    56   15.9   25.6  10.15 1.1608    116    1    100.0    5 
27/08/14  18:00   18.1   18.1   18.0    90   16.4  12.0   ESE   1.00  16.0   ESE   16.1   18.6   16.6  1012.0  0.00   0.0   0.001   0.000   25.4    57   16.3   25.7  10.24 1.1600    117    1    100.0    5 
27/08/14  18:05   17.9   18.0   17.9    90   16.3  14.0   ESE   1.17  17.0   ESE   15.4   18.4   15.9  1011.9  0.00   0.0   0.001   0.000   25.4    58   16.5   25.8  10.44 1.1595    117    1    100.0    5 
27/08/14  18:10   17.9   17.9   17.9    90   16.3  13.0   ESE   1.08  16.0   ESE   15.7   18.4   16.2  1012.0  0.00   0.0   0.001   0.000   25.4    58   16.5   25.8  10.44 1.1596    116    1    100.0    5 
27/08/14  18:15   17.9   17.9   17.9    90   16.3  14.0   ESE   1.17  16.0   ESE   15.4   18.4   15.9  1011.8  0.00   0.0   0.001   0.000   25.4    58   16.6   25.8  10.44 1.1591    116    1    100.0    5 
27/08/14  18:20   17.9   17.9   17.9    90   16.2  13.0   ESE   1.08  16.0   ESE   15.6   18.3   16.0  1011.9  0.00   0.0   0.002   0.000   25.5    59   16.9   25.9  10.63 1.1585    115    1    100.0    5 
27/08/14  18:25   17.9   17.9   17.9    90   16.2  13.0   ESE   1.08  16.0   ESE   15.6   18.3   16.0  1011.8  0.00   0.0   0.002   0.000   25.6    59   16.9   26.0  10.63 1.1582    117    1    100.0    5 
27/08/14  18:30   17.9   17.9   17.8    90   16.2  13.0   ESE   1.08  16.0   ESE   15.6   18.3   16.0  1011.9  0.00   0.0   0.002   0.000   25.6    59   17.0   26.1  10.63 1.1579    115    1    100.0    5 
27/08/14  18:35   17.9   17.9   17.9    90   16.2  13.0    SE   1.08  18.0    SE   15.6   18.3   16.0  1011.7  0.00   0.0   0.002   0.000   25.7    59   17.1   26.2  10.62 1.1574    117    1    100.0    5 
27/08/14  18:40   17.9   17.9   17.9    90   16.2  14.0   ESE   1.17  18.0   ESE   15.3   18.3   15.8  1011.6  0.00   0.0   0.002   0.000   25.7    59   17.1   26.2  10.62 1.1571    115    1    100.0    5 
27/08/14  18:45   17.8   17.9   17.8    90   16.2  13.0   ESE   1.08  17.0   ESE   15.5   18.3   15.9  1011.6  0.00   0.0   0.002   0.000   25.8    59   17.2   26.3  10.61 1.1568    116    1    100.0    5 
27/08/14  18:50   17.8   17.8   17.8    90   16.2  13.0   ESE   1.08  17.0     E   15.5   18.3   15.9  1011.5  0.00   0.0   0.002   0.000   25.8    59   17.2   26.3  10.61 1.1566    116    1    100.0    5 
27/08/14  18:55   17.8   17.8   17.8    91   16.3  14.0   ESE   1.17  19.0   ESE   15.2   18.2   15.7  1011.5  0.00   0.0   0.002   0.000   25.8    59   17.2   26.3  10.61 1.1564    117    1    100.0    5 
27/08/14  19:00   17.8   17.8   17.8    91   16.3  13.0   ESE   1.08  17.0   ESE   15.5   18.3   16.0  1011.6  0.00   0.0   0.002   0.000   25.8    59   17.2   26.3  10.61 1.1564    117    1    100.0    5 
27/08/14  19:05   17.8   17.8   17.8    91   16.3  14.0   ESE   1.17  18.0   ESE   15.2   18.2   15.7  1011.6  0.00   0.0   0.002   0.000   25.9    59   17.3   26.4  10.61 1.1562    117    1    100.0    5 
27/08/14  19:10   17.8   17.8   17.8    91   16.3  13.0   ESE   1.08  16.0   ESE   15.4   18.2   15.9  1011.6  0.00   0.0   0.002   0.000   25.9    59   17.3   26.4  10.60 1.1559    117    1    100.0    5 
27/08/14  19:15   17.8   17.8   17.8    91   16.3  13.0   ESE   1.08  16.0   ESE   15.4   18.2   15.9  1011.7  0.00   0.0   0.002   0.000   25.9    59   17.3   26.4  10.60 1.1559    117    1    100.0    5 
27/08/14  19:20   17.7   17.8   17.7    91   16.2  12.0    SE   1.00  15.0   ESE   15.7   18.2   16.1  1011.7  0.00   0.0   0.002   0.000   26.0    60   17.6   26.6  10.80 1.1553    115    1    100.0    5 
27/08/14  19:25   17.7   17.7   17.7    91   16.2  13.0   ESE   1.08  17.0   ESE   15.4   18.2   15.8  1011.6  0.00   0.0   0.002   0.000   26.0    61   17.9   26.7  10.97 1.1548    117    1    100.0    5 
27/08/14  19:30   17.7   17.7   17.7    91   16.2  11.0    SE   0.92  16.0   ESE   16.0   18.2   16.4  1011.6  0.00   0.0   0.002   0.000   26.1    61   18.0   26.8  10.97 1.1542    118    1    100.0    5 
27/08/14  19:35   17.7   17.7   17.7    91   16.2  13.0    SE   1.08  16.0    SE   15.3   18.1   15.8  1011.6  0.00   0.0   0.002   0.000   26.2    61   18.1   26.8  10.97 1.1539    117    1    100.0    5 
27/08/14  19:40   17.7   17.7   17.7    92   16.4  12.0    SE   1.00  16.0    SE   15.6   18.2   16.1  1011.6  0.00   0.0   0.002   0.000   26.2    61   18.1   26.8  10.97 1.1539    117    1    100.0    5 
27/08/14  19:45   17.7   17.7   17.7    92   16.4  12.0    SE   1.00  15.0    SE   15.6   18.2   16.1  1011.6  0.00   0.0   0.002   0.000   26.2    60   17.8   26.8  10.78 1.1540    117    1    100.0    5 
27/08/14  19:50   17.7   17.7   17.7    92   16.4  13.0    SE   1.08  16.0    SE   15.3   18.2   15.8  1011.6  0.00   0.0   0.002   0.000   26.2    60   17.8   26.8  10.78 1.1540    116    1    100.0    5 
27/08/14  19:55   17.7   17.7   17.7    92   16.4  12.0    SE   1.00  15.0    SE   15.6   18.2   16.1  1011.5  0.00   0.0   0.002   0.000   26.3    60   17.9   26.9  10.78 1.1536    117    1    100.0    5 
27/08/14  20:00   17.7   17.7   17.7    92   16.4  13.0    SE   1.08  17.0    SE   15.3   18.2   15.8  1011.5  0.00   0.0   0.002   0.000   26.3    59   17.6   26.9  10.58 1.1540    117    1    100.0    5 
27/08/14  20:05   17.7   17.7   17.7    92   16.4  12.0    SE   1.00  16.0   ESE   15.6   18.2   16.1  1011.4  0.00   0.0   0.002   0.000   26.3    59   17.7   26.9  10.57 1.1537    117    1    100.0    5 
27/08/14  20:10   17.7   17.7   17.7    92   16.4  13.0    SE   1.08  16.0    SE   15.3   18.2   15.8  1011.3  0.00   0.0   0.002   0.000   26.3    59   17.7   26.9  10.57 1.1535    115    1    100.0    5 
27/08/14  20:15   17.6   17.7   17.6    92   16.3  13.0    SE   1.08  16.0    SE   15.3   18.1   15.7  1011.4  0.00   0.0   0.003   0.000   26.3    58   17.4   26.9  10.37 1.1540    115    1    100.0    5 
27/08/14  20:20   17.6   17.6   17.6    92   16.3  13.0    SE   1.08  16.0   ESE   15.3   18.1   15.7  1011.3  0.00   0.0   0.003   0.000   26.4    58   17.5   26.9  10.37 1.1536    117    1    100.0    5 
27/08/14  20:25   17.6   17.6   17.6    92   16.2  12.0    SE   1.00  16.0   ESE   15.5   18.0   15.9  1011.2  0.00   0.0   0.003   0.000   26.4    58   17.5   26.9  10.37 1.1535    117    1    100.0    5 
27/08/14  20:30   17.6   17.6   17.6    92   16.2  12.0    SE   1.00  15.0    SE   15.5   18.0   15.9  1011.2  0.00   0.0   0.003   0.000   26.3    58   17.4   26.9  10.37 1.1538    117    1    100.0    5 
27/08/14  20:35   17.6   17.6   17.6    92   16.2  13.0    SE   1.08  16.0    SE   15.2   18.0   15.7  1011.2  0.00   0.0   0.003   0.000   26.4    57   17.2   26.9  10.17 1.1539    117    1    100.0    5 
27/08/14  20:40   17.6   17.6   17.6    92   16.2  12.0    SE   1.00  14.0    SE   15.5   18.0   15.9  1011.2  0.00   0.0   0.003   0.000   26.4    57   17.2   26.9  10.17 1.1539    117    1    100.0    5 
27/08/14  20:45   17.6   17.6   17.6    92   16.2  12.0    SE   1.00  17.0    SE   15.5   18.0   15.9  1011.3  0.00   0.0   0.003   0.000   26.4    57   17.2   26.9  10.17 1.1541    117    1    100.0    5 
27/08/14  20:50   17.6   17.6   17.6    92   16.3  12.0    SE   1.00  14.0    SE   15.6   18.1   16.0  1011.3  0.00   0.0   0.003   0.000   26.4    57   17.2   26.9  10.17 1.1541    117    1    100.0    5 
27/08/14  20:55   17.6   17.7   17.6    93   16.5  12.0    SE   1.00  14.0    SE   15.6   18.1   16.1  1011.3  0.00   0.0   0.003   0.000   26.4    57   17.2   26.9  10.17 1.1541    116    1    100.0    5 
27/08/14  21:00   17.7   17.7   17.6    93   16.5  13.0    SE   1.08  15.0    SE   15.3   18.2   15.8  1011.3  0.00   0.0   0.002   0.000   26.4    57   17.2   26.9  10.17 1.1540    116    1    100.0    5 
27/08/14  21:05   17.7   17.7   17.6    93   16.5  12.0    SE   1.00  14.0    SE   15.6   18.2   16.1  1011.3  0.00   0.0   0.002   0.000   26.4    56   16.9   26.8  10.07 1.1544    117    1    100.0    5 
27/08/14  21:10   17.7   17.7   17.7    93   16.6  11.0   SSE   0.92  14.0   SSE   16.0   18.2   16.5  1011.3  0.00   0.0   0.002   0.000   26.4    56   16.9   26.8  10.07 1.1544    117    1    100.0    5 
27/08/14  21:15   17.8   17.8   17.7    93   16.6  11.0   SSE   0.92  14.0   SSE   16.1   18.3   16.6  1011.4  0.00   0.0   0.002   0.000   26.4    56   16.9   26.8  10.07 1.1545    117    1    100.0    5 
27/08/14  21:20   17.7   17.8   17.7    92   16.4  13.0   SSE   1.08  17.0   SSE   15.4   18.2   15.9  1011.3  0.00   0.0   0.002   0.000   26.4    56   16.9   26.8  10.07 1.1545    115    1    100.0    5 
27/08/14  21:25   17.4   17.7   17.4    92   16.1  12.0     S   1.00  17.0     S   15.3   17.8   15.7  1011.4  0.00   0.0   0.003   0.000   26.4    56   16.9   26.8  10.07 1.1545    115    1    100.0    5 
27/08/14  21:30   17.4   17.4   17.4    92   16.1  11.0   SSE   0.92  16.0     S   15.7   17.9   16.1  1011.3  0.00   0.0   0.003   0.000   26.4    56   16.9   26.8  10.07 1.1545    117    1    100.0    5 
27/08/14  21:35   17.4   17.5   17.4    92   16.1  12.0   SSE   1.00  14.0     S   15.3   17.8   15.7  1011.3  0.00   0.0   0.003   0.000   26.4    56   16.9   26.8  10.07 1.1545    118    1    100.0    5 
27/08/14  21:40   17.5   17.5   17.4    92   16.2  11.0   SSE   0.92  13.0   SSE   15.8   17.9   16.2  1011.3  0.00   0.0   0.003   0.000   26.4    56   16.9   26.8  10.07 1.1544    114    1    100.0    5 
27/08/14  21:45   17.6   17.6   17.5    92   16.2  11.0   SSE   0.92  14.0   SSE   15.8   18.0   16.3  1011.3  0.00   0.0   0.003   0.000   26.4    56   16.9   26.8  10.07 1.1544    117    1    100.0    5 
27/08/14  21:50   17.4   17.6   17.4    92   16.1  11.0     S   0.92  14.0   SSW   15.7   17.9   16.1  1011.3  0.00   0.0   0.003   0.000   26.4    56   16.9   26.8  10.07 1.1544    115    1    100.0    5 
27/08/14  21:55   17.4   17.5   17.4    91   16.0  13.0     S   1.08  16.0     S   15.1   17.9   15.5  1011.2  0.00   0.0   0.003   0.000   26.4    55   16.6   26.7   9.87 1.1547    115    1    100.0    5 
27/08/14  22:00   17.3   17.4   17.3    91   15.8  13.0   SSW   1.08  17.0     S   14.9   17.7   15.3  1011.2  0.00   0.0   0.003   0.000   26.3    55   16.6   26.7   9.87 1.1550    117    1    100.0    5 
27/08/14  22:05   17.4   17.4   17.3    91   15.9  12.0   SSW   1.00  14.0   SSW   15.3   17.8   15.7  1011.2  0.00   0.0   0.003   0.000   26.3    55   16.6   26.7   9.87 1.1550    117    1    100.0    5 
27/08/14  22:10   17.4   17.4   17.4    91   16.0  11.0   SSW   0.92  15.0     S   15.7   17.9   16.1  1011.2  0.00   0.0   0.003   0.000   26.3    55   16.6   26.7   9.87 1.1550    116    1    100.0    5 
27/08/14  22:15   17.4   17.5   17.4    91   16.0  12.0   SSW   1.00  15.0     S   15.3   17.9   15.8  1011.2  0.00   0.0   0.003   0.000   26.3    55   16.6   26.7   9.87 1.1550    115    1    100.0    5 
27/08/14  22:20   17.4   17.4   17.4    91   16.0  12.0     S   1.00  15.0     S   15.3   17.9   15.8  1011.1  0.00   0.0   0.003   0.000   26.3    55   16.6   26.7   9.87 1.1549    116    1    100.0    5 
27/08/14  22:25   17.3   17.4   17.3    91   15.8  12.0     S   1.00  14.0     S   15.2   17.7   15.6  1011.0  0.00   0.0   0.004   0.000   26.3    55   16.6   26.7   9.87 1.1547    116    1    100.0    5 
27/08/14  22:30   17.2   17.3   17.2    92   15.9  11.0     S   0.92  13.0     S   15.4   17.6   15.8  1010.9  0.00   0.0   0.004   0.000   26.3    55   16.6   26.7   9.87 1.1547    117    1    100.0    5 
27/08/14  22:35   17.2   17.2   17.2    92   15.9  10.0     S   0.83  12.0     S   15.8   17.6   16.2  1010.9  0.00   0.0   0.004   0.000   26.3    55   16.5   26.6   9.88 1.1550    117    1    100.0    5 
27/08/14  22:40   17.2   17.2   17.2    92   15.9   7.0     S   0.58   9.0     S   17.1   17.6   17.5  1010.9  0.00   0.0   0.004   0.000   26.3    55   16.5   26.6   9.88 1.1549    117    1    100.0    5 
27/08/14  22:45   17.2   17.2   17.2    92   15.9   6.0     S   0.50   8.0     S   17.2   17.6   17.6  1010.9  0.00   0.0   0.004   0.000   26.3    55   16.5   26.6   9.88 1.1549    115    1    100.0    5 
27/08/14  22:50   17.2   17.2   17.2    92   15.9   6.0   SSE   0.50   8.0     S   17.2   17.6   17.6  1010.9  0.00   0.0   0.004   0.000   26.3    55   16.5   26.6   9.88 1.1549    117    1    100.0    5 
27/08/14  22:55   17.2   17.2   17.2    92   15.9   7.0   SSE   0.58  10.0   SSE   17.1   17.6   17.5  1010.8  0.00   0.0   0.004   0.000   26.3    55   16.6   26.7   9.87 1.1545    117    1    100.0    5 
27/08/14  23:00   17.1   17.2   17.1    92   15.8   8.0    SE   0.67  10.0    SE   16.6   17.5   17.0  1010.7  0.00   0.0   0.004   0.000   26.3    55   16.6   26.7   9.87 1.1544    116    1    100.0    5 
27/08/14  23:05   17.1   17.2   17.1    92   15.8   9.0   SSE   0.75  11.0    SE   16.1   17.5   16.5  1010.7  0.00   0.0   0.004   0.000   26.3    55   16.6   26.7   9.87 1.1544    116    1    100.0    5 
27/08/14  23:10   17.1   17.1   17.1    93   16.0   9.0   SSE   0.75  11.0   SSE   16.1   17.5   16.5  1010.6  0.00   0.0   0.004   0.000   26.4    55   16.6   26.7   9.87 1.1539    117    1    100.0    5 
27/08/14  23:15   17.1   17.1   17.1    92   15.8  11.0    SE   0.92  13.0    SE   15.3   17.5   15.7  1010.5  0.00   0.0   0.004   0.000   26.4    55   16.6   26.7   9.87 1.1539    116    1    100.0    5 
27/08/14  23:20   17.1   17.1   17.1    93   16.0  11.0   SSE   0.92  13.0    SE   15.3   17.5   15.7  1010.5  0.00   0.0   0.004   0.000   26.4    55   16.6   26.7   9.87 1.1539    116    1    100.0    5 
27/08/14  23:25   17.1   17.1   17.1    93   15.9  12.0   SSE   1.00  16.0   SSE   14.9   17.4   15.3  1010.5  0.00   0.0   0.004   0.000   26.4    55   16.7   26.8   9.87 1.1536    116    1    100.0    5 
27/08/14  23:30   17.1   17.1   17.1    93   15.9  12.0   SSE   1.00  15.0   SSE   14.9   17.4   15.3  1010.5  0.00   0.0   0.004   0.000   26.5    55   16.7   26.9   9.86 1.1533    117    1    100.0    5 
27/08/14  23:35   17.1   17.1   17.1    93   15.9  11.0   SSE   0.92  14.0   SSE   15.2   17.4   15.6  1010.5  0.00   0.0   0.004   0.000   26.5    55   16.7   26.9   9.86 1.1533    116    1    100.0    5 
27/08/14  23:40   17.1   17.1   17.1    93   15.9  12.0   SSE   1.00  15.0    SE   14.9   17.4   15.3  1010.5  0.00   0.0   0.004   0.000   26.5    55   16.7   26.9   9.86 1.1533    114    1    100.0    5 
27/08/14  23:45   17.1   17.1   17.1    93   15.9  13.0   SSE   1.08  16.0    SE   14.7   17.4   15.1  1010.4  0.00   0.0   0.004   0.000   26.5    55   16.7   26.9   9.86 1.1532    116    1    100.0    5 
27/08/14  23:50   17.1   17.1   17.0    94   16.1  12.0   SSE   1.00  16.0   SSE   14.9   17.4   15.3  1010.5  0.00   0.0   0.004   0.000   26.5    55   16.7   26.9   9.86 1.1533    117    1    100.0    5 
27/08/14  23:55   17.1   17.1   17.1    94   16.1  15.0   SSE   1.25  19.0   SSE   14.2   17.4   14.6  1010.4  0.00   0.0   0.004   0.000   26.5    55   16.7   26.9   9.86 1.1532    117    1    100.0    5 
28/08/14  00:00   16.9   17.1   16.9    94   15.9  15.0   SSE   1.25  18.0   SSE   14.1   17.3   14.4  1010.2  0.00   0.0   0.005   0.000   26.6    55   16.8   26.9   9.86 1.1527    117    1    100.0    5 
28/08/14   0:05   16.9   16.9   16.9    94   15.9  14.0   SSE   1.17  19.0   SSE   14.2   17.3   14.6  1010.3  0.00   0.0   0.005   0.000   26.5    55   16.7   26.9   9.86 1.1530    115    1    100.0    5 
28/08/14   0:10   16.9   16.9   16.9    94   16.0  14.0   SSE   1.17  18.0   SSE   14.3   17.3   14.7  1010.3  0.00   0.0   0.005   0.000   26.5    55   16.7   26.9   9.86 1.1530    117    1    100.0    5 
28/08/14   0:15   16.9   16.9   16.9    94   16.0  14.0   SSE   1.17  18.0    SE   14.3   17.3   14.7  1010.2  0.00   0.0   0.005   0.000   26.5    55   16.7   26.9   9.86 1.1530    116    1    100.0    5 
28/08/14   0:20   16.9   16.9   16.9    95   16.1  14.0   SSE   1.17  18.0   SSE   14.3   17.4   14.8  1010.2  0.00   0.0   0.005   0.000   26.5    55   16.7   26.9   9.86 1.1529    117    1    100.0    5 
28/08/14   0:25   17.0   17.0   16.9    95   16.2  15.0   SSE   1.25  18.0    SE   14.2   17.4   14.6  1010.2  0.00   0.0   0.005   0.000   26.5    54   16.4   26.8   9.76 1.1533    116    1    100.0    5 
28/08/14   0:30   17.1   17.1   17.0    95   16.2  14.0   SSE   1.17  19.0   SSE   14.4   17.5   14.9  1010.1  0.00   0.0   0.004   0.000   26.5    54   16.4   26.8   9.76 1.1532    117    1    100.0    5 
28/08/14   0:35   17.1   17.1   17.1    95   16.3  15.0   SSE   1.25  18.0   SSE   14.3   17.6   14.8  1010.1  0.00   0.0   0.004   0.000   26.4    54   16.4   26.8   9.76 1.1535    117    1    100.0    5 
28/08/14   0:40   17.2   17.2   17.1    95   16.4  14.0   SSE   1.17  18.0    SE   14.6   17.6   15.0  1010.0  0.00   0.0   0.004   0.000   26.4    54   16.4   26.8   9.76 1.1534    117    1    100.0    5 
28/08/14   0:45   17.2   17.2   17.2    95   16.4  16.0   SSE   1.33  20.0   SSE   14.2   17.6   14.6  1009.9  0.00   0.0   0.004   0.000   26.4    54   16.4   26.8   9.76 1.1533    117    1    100.0    5 
28/08/14   0:50   17.2   17.2   17.2    95   16.4  16.0   SSE   1.33  20.0   SSE   14.2   17.7   14.7  1010.0  0.00   0.0   0.004   0.000   26.4    54   16.3   26.7   9.76 1.1536    117    1    100.0    5 
28/08/14   0:55   17.2   17.2   17.2    95   16.4  17.0   SSE   1.42  20.0   SSE   14.1   17.7   14.5  1009.9  0.00   0.0   0.004   0.000   26.4    54   16.3   26.7   9.76 1.1536    115    1    100.0    5 
28/08/14   1:00   17.2   17.2   17.2    95   16.4  17.0   SSE   1.42  21.0     S   14.0   17.6   14.4  1009.9  0.00   0.0   0.004   0.000   26.4    54   16.3   26.7   9.76 1.1535    117    1    100.0    5 
28/08/14   1:05   17.2   17.2   17.2    95   16.4  16.0   SSE   1.33  20.0   SSE   14.2   17.6   14.6  1009.8  0.00   0.0   0.004   0.000   26.4    54   16.3   26.7   9.76 1.1534    116    1    100.0    5 
28/08/14   1:10   17.2   17.2   17.2    95   16.4  16.0   SSE   1.33  19.0   SSE   14.2   17.6   14.6  1009.8  0.00   0.0   0.004   0.000   26.3    54   16.3   26.6   9.76 1.1538    116    1    100.0    5 
28/08/14   1:15   17.2   17.2   17.2    95   16.4  15.0   SSE   1.25  20.0   SSE   14.4   17.6   14.8  1009.8  0.00   0.0   0.004   0.000   26.3    54   16.3   26.6   9.76 1.1537    117    1    100.0    5 
28/08/14   1:20   17.2   17.2   17.2    95   16.4  17.0   SSE   1.42  21.0   SSE   14.0   17.6   14.4  1009.7  0.00   0.0   0.004   0.000   26.3    54   16.3   26.6   9.76 1.1536    116    1    100.0    5 
28/08/14   1:25   17.2   17.2   17.2    95   16.4  17.0   SSE   1.42  20.0   SSE   14.0   17.6   14.4  1009.7  0.00   0.0   0.004   0.000   26.3    54   16.2   26.6   9.76 1.1538    117    1    100.0    5 
28/08/14   1:30   17.3   17.3   17.2    95   16.5  16.0   SSE   1.33  19.0   SSE   14.3   17.7   14.7  1009.6  0.00   0.0   0.004   0.000   26.3    54   16.2   26.6   9.76 1.1538    117    1    100.0    5 
28/08/14   1:35   17.3   17.3   17.2    95   16.5  15.0   SSE   1.25  19.0     S   14.5   17.7   14.9  1009.5  0.00   0.0   0.004   0.000   26.3    54   16.2   26.6   9.76 1.1537    117    1    100.0    5 
28/08/14   1:40   17.3   17.3   17.3    95   16.5  16.0   SSE   1.33  20.0     S   14.3   17.8   14.8  1009.5  0.00   0.0   0.003   0.000   26.3    54   16.2   26.6   9.76 1.1537    117    1    100.0    5 
28/08/14   1:45   17.3   17.3   17.3    95   16.5  16.0   SSE   1.33  19.0   SSE   14.3   17.8   14.8  1009.4  0.00   0.0   0.003   0.000   26.2    54   16.2   26.5   9.77 1.1539    116    1    100.0    5 
28/08/14   1:50   17.4   17.4   17.3    95   16.6  15.0   SSE   1.25  19.0     S   14.6   17.9   15.1  1009.4  0.00   0.0   0.003   0.000   26.2    54   16.2   26.5   9.77 1.1539    116    1    100.0    5 
28/08/14   1:55   17.3   17.4   17.3    95   16.5  17.0   SSE   1.42  22.0   SSE   14.2   17.8   14.6  1009.4  0.00   0.0   0.003   0.000   26.2    54   16.2   26.5   9.77 1.1538    117    1    100.0    5 
28/08/14   2:00   17.4   17.4   17.3    95   16.6  18.0   SSE   1.50  21.0   SSE   14.1   17.9   14.6  1009.4  0.00   0.0   0.003   0.000   26.2    54   16.2   26.5   9.77 1.1538    116    1    100.0    5 
28/08/14   2:05   17.4   17.4   17.4    95   16.6  17.0   SSE   1.42  21.0   SSE   14.3   17.9   14.8  1009.3  0.00   0.0   0.003   0.000   26.2    54   16.1   26.4   9.77 1.1540    116    1    100.0    5 
28/08/14   2:10   17.4   17.4   17.4    95   16.6  17.0   SSE   1.42  20.0   SSE   14.3   17.9   14.8  1009.2  0.00   0.0   0.003   0.000   26.2    54   16.1   26.4   9.77 1.1539    116    1    100.0    5 
28/08/14   2:15   17.4   17.4   17.4    95   16.6  17.0   SSE   1.42  22.0   SSE   14.3   17.9   14.8  1009.0  0.00   0.0   0.003   0.000   26.1    54   16.1   26.4   9.77 1.1540    117    1    100.0    5 
28/08/14   2:20   17.5   17.5   17.4    95   16.7  17.0   SSE   1.42  21.0   SSE   14.4   18.0   14.9  1009.0  0.00   0.0   0.003   0.000   26.1    54   16.1   26.4   9.77 1.1540    117    1    100.0    5 
28/08/14   2:25   17.5   17.5   17.5    95   16.7  17.0   SSE   1.42  22.0   SSE   14.4   18.0   14.9  1009.1  0.00   0.0   0.003   0.000   26.1    54   16.1   26.4   9.77 1.1540    117    1    100.0    5 
28/08/14   2:30   17.5   17.6   17.5    95   16.7  17.0   SSE   1.42  21.0   SSE   14.4   18.0   14.9  1009.0  0.00   0.0   0.003   0.000   26.1    54   16.1   26.4   9.77 1.1540    116    1    100.0    5 
28/08/14   2:35   17.6   17.6   17.5    95   16.7  16.0   SSE   1.33  20.0   SSE   14.6   18.1   15.1  1009.0  0.00   0.0   0.003   0.000   26.1    54   16.1   26.4   9.77 1.1540    116    1    100.0    5 
28/08/14   2:40   17.6   17.6   17.6    95   16.7  16.0   SSE   1.33  19.0   SSE   14.6   18.1   15.1  1008.9  0.00   0.0   0.003   0.000   26.1    54   16.0   26.3   9.77 1.1542    117    1    100.0    5 
28/08/14   2:45   17.5   17.6   17.5    95   16.7  16.0   SSE   1.33  20.0   SSE   14.6   18.0   15.1  1008.9  0.00   0.0   0.003   0.000   26.1    54   16.0   26.3   9.77 1.1541    116    1    100.0    5 
28/08/14   2:50   17.5   17.5   17.5    95   16.7  16.0   SSE   1.33  19.0   SSE   14.6   18.0   15.1  1008.9  0.00   0.0   0.003   0.000   26.1    54   16.0   26.3   9.77 1.1541    117    1    100.0    5 
28/08/14   2:55   17.5   17.5   17.5    95   16.7  15.0   SSE   1.25  19.0   SSE   14.8   18.0   15.3  1008.8  0.00   0.0   0.003   0.000   26.1    54   16.0   26.3   9.77 1.1540    117    1    100.0    5 
28/08/14   3:00   17.5   17.5   17.5    95   16.7  15.0   SSE   1.25  18.0   SSE   14.8   18.0   15.3  1008.9  0.00   0.0   0.003   0.000   26.0    54   16.0   26.3   9.77 1.1544    117    1    100.0    5 
28/08/14   3:05   17.5   17.5   17.4    95   16.7  15.0   SSE   1.25  18.0     S   14.8   18.0   15.3  1008.7  0.00   0.0   0.003   0.000   26.0    55   16.3   26.3   9.90 1.1538    116    1    100.0    5 
28/08/14   3:10   17.5   17.5   17.4    95   16.7  14.0   SSE   1.17  18.0   SSE   14.9   18.0   15.4  1008.8  0.00   0.0   0.003   0.000   26.0    54   16.0   26.3   9.77 1.1543    116    1    100.0    5 
28/08/14   3:15   17.4   17.5   17.4    95   16.6  15.0   SSE   1.25  20.0   SSE   14.7   17.9   15.2  1008.7  0.00   0.0   0.003   0.000   26.0    55   16.3   26.3   9.90 1.1538    117    1    100.0    5 
28/08/14   3:20   17.5   17.5   17.4    96   16.9  14.0     S   1.17  17.0     S   14.9   18.0   15.4  1008.8  0.00   0.0   0.003   0.000   26.0    55   16.3   26.3   9.90 1.1539    117    1    100.0    5 
28/08/14   3:25   17.5   17.5   17.4    96   16.9  13.0     S   1.08  18.0     S   15.2   18.0   15.7  1008.7  0.00   0.0   0.003   0.000   26.0    55   16.3   26.3   9.90 1.1538    117    1    100.0    5 
28/08/14   3:30   17.5   17.5   17.5    96   16.9  15.0     S   1.25  18.0   SSE   14.8   18.0   15.3  1008.7  0.00   0.0   0.003   0.000   25.9    55   16.2   26.3   9.90 1.1540    117    1    100.0    5 
28/08/14   3:35   17.5   17.5   17.5    96   16.9  14.0     S   1.17  19.0     S   14.9   18.0   15.4  1008.6  0.00   0.0   0.003   0.000   25.9    55   16.2   26.3   9.90 1.1540    115    1    100.0    5 
28/08/14   3:40   17.5   17.6   17.5    96   16.9  14.0     S   1.17  18.0     S   14.9   18.0   15.4  1008.6  0.00   0.0   0.003   0.000   25.9    55   16.2   26.3   9.90 1.1540    115    1    100.0    5 
28/08/14   3:45   17.6   17.6   17.5    96   16.9  15.0     S   1.25  19.0     S   14.8   18.1   15.3  1008.6  0.00   0.0   0.003   0.000   25.9    55   16.2   26.3   9.90 1.1540    117    1    100.0    5 
28/08/14   3:50   17.6   17.6   17.6    96   16.9  15.0     S   1.25  19.0     S   14.8   18.1   15.3  1008.6  0.00   0.0   0.003   0.000   25.9    55   16.2   26.3   9.90 1.1539    117    1    100.0    5 
28/08/14   3:55   17.6   17.6   17.6    96   16.9  14.0     S   1.17  17.0     S   15.0   18.1   15.5  1008.6  0.00   0.0   0.003   0.000   25.9    55   16.2   26.3   9.90 1.1539    116    1    100.0    5 
28/08/14   4:00   17.6   17.6   17.6    96   17.0  14.0     S   1.17  17.0     S   15.1   18.2   15.6  1008.5  0.00   0.0   0.003   0.000   25.9    55   16.2   26.3   9.90 1.1539    116    1    100.0    5 
28/08/14   4:05   17.6   17.6   17.6    96   17.0  14.0     S   1.17  17.0     S   15.1   18.2   15.6  1008.5  0.00   0.0   0.003   0.000   25.9    55   16.2   26.3   9.90 1.1539    117    1    100.0    5 
28/08/14   4:10   17.7   17.7   17.6    96   17.0  14.0     S   1.17  18.0     S   15.1   18.2   15.7  1008.5  0.00   0.0   0.002   0.000   25.9    55   16.2   26.3   9.90 1.1538    117    1    100.0    5 
28/08/14   4:15   17.7   17.7   17.7    97   17.2  14.0   SSW   1.17  17.0     S   15.1   18.2   15.7  1008.4  0.00   0.0   0.002   0.000   25.9    55   16.2   26.3   9.90 1.1537    115    1    100.0    5 
28/08/14   4:20   17.7   17.7   17.7    97   17.2  13.0   SSW   1.08  17.0   SSW   15.4   18.3   15.9  1008.4  0.00   0.0   0.002   0.000   25.9    55   16.2   26.3   9.90 1.1537    118    1    100.0    5 
28/08/14   4:25   17.7   17.7   17.7    97   17.2  12.0   SSW   1.00  15.0   SSW   15.7   18.3   16.2  1008.5  0.00   0.0   0.002   0.000   25.9    55   16.2   26.2   9.91 1.1541    116    1    100.0    5 
28/08/14   4:30   17.7   17.7   17.7    97   17.2  13.0    SW   1.08  17.0    SW   15.4   18.3   15.9  1008.5  0.00   0.0   0.002   0.000   25.9    55   16.2   26.2   9.91 1.1541    116    1    100.0    5 
28/08/14   4:35   17.6   17.7   17.6    96   16.9  12.0    SW   1.00  16.0   WSW   15.5   18.1   16.0  1008.6  0.00   0.0   0.003   0.000   25.9    55   16.2   26.2   9.91 1.1542    117    1    100.0    5 
28/08/14   4:40   17.5   17.6   17.5    96   16.9  13.0    SW   1.08  16.0    SW   15.2   18.0   15.7  1008.5  0.00   0.0   0.003   0.000   25.9    54   15.9   26.2   9.78 1.1545    117    1    100.0    5 
28/08/14   4:45   17.4   17.5   17.4    96   16.8  13.0   WSW   1.08  16.0   WSW   15.1   17.9   15.6  1008.6  0.00   0.0   0.003   0.000   25.9    54   15.9   26.2   9.78 1.1546    117    1    100.0    5 
28/08/14   4:50   17.4   17.4   17.3    96   16.7  13.0   WSW   1.08  16.0    SW   15.0   17.9   15.5  1008.6  0.00   0.0   0.003   0.000   25.9    54   15.9   26.2   9.78 1.1546    117    1    100.0    5 
28/08/14   4:55   17.3   17.4   17.3    96   16.7  14.0   WSW   1.17  17.0   WSW   14.7   17.8   15.2  1008.6  0.00   0.0   0.003   0.000   25.9    54   15.9   26.2   9.78 1.1546    116    1    100.0    5 
28/08/14   5:00   17.3   17.3   17.3    96   16.7  12.0   WSW   1.00  14.0   WSW   15.2   17.8   15.7  1008.5  0.00   0.0   0.003   0.000   25.9    54   15.9   26.2   9.78 1.1545    117    1    100.0    5 
28/08/14   5:05   17.3   17.3   17.3    96   16.6  13.0   WSW   1.08  17.0   WSW   14.9   17.8   15.4  1008.6  0.00   0.0   0.004   0.000   25.8    54   15.8   26.1   9.78 1.1549    115    1    100.0    5 
28/08/14   5:10   17.2   17.3   17.2    96   16.6  13.0   WSW   1.08  17.0   WSW   14.8   17.7   15.3  1008.6  0.00   0.0   0.004   0.000   25.8    54   15.8   26.1   9.78 1.1549    117    1    100.0    5 
28/08/14   5:15   17.2   17.2   17.2    96   16.6  13.0   WSW   1.08  16.0   WSW   14.8   17.7   15.3  1008.5  0.00   0.0   0.004   0.000   25.8    54   15.8   26.1   9.78 1.1548    117    1    100.0    5 
28/08/14   5:20   17.2   17.2   17.2    96   16.5  12.0   WSW   1.00  15.0   WSW   15.1   17.6   15.5  1008.6  0.00   0.0   0.004   0.000   25.8    54   15.8   26.1   9.78 1.1549    117    1    100.0    5 
28/08/14   5:25   17.2   17.2   17.2    96   16.6  11.0   WSW   0.92  13.0   WSW   15.4   17.7   15.9  1008.5  0.00   0.0   0.004   0.000   25.8    54   15.8   26.1   9.78 1.1547    118    1    100.0    5 
28/08/14   5:30   17.3   17.3   17.2    97   16.8  10.0   WSW   0.83  12.0   WSW   15.9   17.8   16.4  1008.5  0.00   0.0   0.004   0.000   25.8    54   15.8   26.0   9.78 1.1551    117    1    100.0    5 
28/08/14   5:35   17.2   17.3   17.2    96   16.6  10.0   WSW   0.83  12.0    SW   15.8   17.7   16.3  1008.5  0.00   0.0   0.004   0.000   25.8    54   15.8   26.0   9.78 1.1551    117    1    100.0    5 
28/08/14   5:40   17.2   17.3   17.2    97   16.7  10.0    SW   0.83  12.0    SW   15.8   17.7   16.3  1008.6  0.00   0.0   0.004   0.000   25.8    54   15.8   26.0   9.78 1.1552    115    1    100.0    5 
28/08/14   5:45   17.3   17.3   17.2    96   16.6  10.0    SW   0.83  12.0    SW   15.9   17.8   16.4  1008.7  0.00   0.0   0.004   0.000   25.8    54   15.8   26.0   9.78 1.1553    117    1    100.0    5 
28/08/14   5:50   17.2   17.3   17.2    96   16.6  11.0   WSW   0.92  14.0   WSW   15.4   17.7   15.9  1008.7  0.00   0.0   0.004   0.000   25.8    54   15.8   26.0   9.78 1.1553    116    1    100.0    5 
28/08/14   5:55   17.2   17.2   17.2    96   16.6  11.0   WSW   0.92  15.0   WSW   15.4   17.7   15.9  1008.8  0.00   0.0   0.004   0.000   25.8    54   15.8   26.0   9.78 1.1554    115    1    100.0    5 
28/08/14   6:00   17.2   17.2   17.2    96   16.5  12.0   WSW   1.00  15.0   WSW   15.1   17.6   15.5  1008.8  0.00   0.0   0.004   0.000   25.8    54   15.8   26.0   9.78 1.1554    116    1    100.0    5 
28/08/14   6:05   17.2   17.2   17.1    96   16.5  12.0   WSW   1.00  15.0   WSW   15.1   17.6   15.5  1008.9  0.00   0.0   0.004   0.000   25.7    54   15.7   25.9   9.78 1.1558    117    1    100.0    5 
28/08/14   6:10   17.3   17.3   17.2    96   16.6  12.0   WSW   1.00  15.0   WSW   15.2   17.8   15.7  1008.9  0.00   0.0   0.004   0.000   25.7    54   15.7   25.9   9.78 1.1559    117    1    100.0    5 
28/08/14   6:15   17.2   17.3   17.2    96   16.6  13.0   WSW   1.08  16.0   WSW   14.8   17.7   15.3  1009.0  0.00   0.0   0.004   0.000   25.7    54   15.7   25.9   9.78 1.1559    116    1    100.0    5 
28/08/14   6:20   17.2   17.2   17.2    96   16.5  12.0   WSW   1.00  13.0   WSW   15.1   17.6   15.5  1008.9  0.00   0.0   0.004   0.000   25.7    54   15.7   25.9   9.78 1.1559    116    1    100.0    5 
28/08/14   6:25   17.2   17.2   17.2    96   16.6  11.0   WSW   0.92  13.0   WSW   15.4   17.7   15.9  1009.0  0.00   0.0   0.004   0.000   25.7    54   15.7   25.9   9.78 1.1559    117    1    100.0    5 
28/08/14   6:30   17.2   17.2   17.2    96   16.6  10.0   WSW   0.83  12.0   WSW   15.8   17.7   16.3  1009.0  0.00   0.0   0.004   0.000   25.7    54   15.7   25.9   9.78 1.1560    117    1    100.0    5 
28/08/14   6:35   17.2   17.2   17.2    96   16.6   9.0   WSW   0.75  11.0   WSW   16.2   17.7   16.7  1009.0  0.00   0.0   0.004   0.000   25.7    54   15.7   25.9   9.79 1.1562    117    1    100.0    5 
28/08/14   6:40   17.2   17.3   17.2    96   16.6   8.0   WSW   0.67  10.0   WSW   16.7   17.7   17.2  1009.0  0.00   0.0   0.004   0.000   25.7    54   15.7   25.9   9.79 1.1562    117    1    100.0    5 
28/08/14   6:45   17.2   17.3   17.2    96   16.6   8.0   WSW   0.67  10.0   WSW   16.7   17.7   17.2  1009.1  0.00   0.0   0.004   0.000   25.7    54   15.7   25.9   9.79 1.1563    116    1    100.0    5 
28/08/14   6:50   17.2   17.2   17.2    95   16.4   9.0   WSW   0.75  11.0   WSW   16.2   17.6   16.6  1009.2  0.00   0.0   0.004   0.000   25.7    54   15.7   25.9   9.79 1.1564    116    1    100.0    5 
28/08/14   6:55   17.1   17.2   17.1    95   16.2   9.0   WSW   0.75  12.0   WSW   16.0   17.5   16.4  1009.2  0.00   0.0   0.004   0.000   25.7    54   15.7   25.9   9.79 1.1564    116    1    100.0    5 
28/08/14   7:00   17.1   17.1   17.0    95   16.2  11.0   WSW   0.92  14.0   WSW   15.2   17.5   15.7  1009.2  0.00   0.0   0.004   0.000   25.7    54   15.7   25.9   9.79 1.1565    116    1    100.0    5 
28/08/14   7:05   16.9   17.1   16.9    95   16.1  11.0   WSW   0.92  14.0   WSW   15.1   17.3   15.4  1009.2  0.00   0.0   0.005   0.000   25.7    54   15.7   25.9   9.79 1.1565    116    1    100.0    5 
28/08/14   7:10   17.0   17.0   16.9    95   16.2  10.0   WSW   0.83  12.0   WSW   15.6   17.4   16.0  1009.3  0.00   0.0   0.005   0.000   25.7    54   15.7   25.9   9.79 1.1565    116    1    100.0    5 
28/08/14   7:15   17.0   17.1   17.0    94   16.0  11.0   WSW   0.92  15.0   WSW   15.2   17.4   15.6  1009.3  0.00   0.0   0.005   0.000   25.6    54   15.6   25.8   9.79 1.1569    117    1    100.0    5 
28/08/14   7:20   17.1   17.1   17.0    94   16.1  15.0   WSW   1.25  20.0   WSW   14.2   17.4   14.6  1009.4  0.00   0.0   0.004   0.000   25.6    54   15.6   25.8   9.79 1.1569    117    1    100.0    5 
28/08/14   7:25   16.8   17.1   16.8    94   15.8  18.0   WSW   1.50  23.0   WSW   13.4   17.2   13.8  1009.5  0.00   0.0   0.005   0.000   25.6    54   15.6   25.8   9.79 1.1570    117    1    100.0    5 
28/08/14   7:30   16.7   16.8   16.7    94   15.7  15.0   WSW   1.25  21.0   WSW   13.8   17.1   14.2  1009.6  0.00   0.0   0.006   0.000   25.6    54   15.6   25.8   9.79 1.1571    116    1    100.0    5 
28/08/14   7:35   16.4   16.7   16.4    94   15.5  10.0     W   0.83  15.0     W   14.9   16.8   15.2  1009.6  0.00   0.0   0.007   0.000   25.6    54   15.6   25.8   9.79 1.1572    117    1    100.0    5 
28/08/14   7:40   16.4   16.4   16.4    94   15.4   8.0     W   0.67  13.0     W   15.7   16.7   16.1  1009.7  0.00   0.0   0.007   0.000   25.6    54   15.6   25.8   9.79 1.1573    116    1    100.0    5 
28/08/14   7:45   16.4   16.4   16.4    94   15.4   7.0     W   0.58  12.0     W   16.2   16.7   16.5  1009.6  0.00   0.0   0.007   0.000   25.6    54   15.6   25.8   9.79 1.1572    117    1    100.0    5 
28/08/14   7:50   16.5   16.5   16.4    94   15.5   7.0   WSW   0.58  10.0     W   16.3   16.8   16.6  1009.7  0.00   0.0   0.006   0.000   25.6    54   15.6   25.8   9.79 1.1573    116    1    100.0    5 
28/08/14   7:55   16.7   16.7   16.5    94   15.7   9.0   WSW   0.75  12.0   WSW   15.6   17.1   15.9  1009.7  0.00   0.0   0.006   0.000   25.6    54   15.6   25.8   9.79 1.1573    117    1    100.0    5 
28/08/14   8:00   16.8   16.8   16.7    94   15.9   9.0   WSW   0.75  13.0   WSW   15.8   17.2   16.2  1009.8  0.00   0.0   0.005   0.000   25.6    54   15.6   25.8   9.79 1.1574    114    1    100.0    5 
79724